<?xml version="1.0" encoding="UTF-8" standalone="no" ?>
<gpx xmlns="http://www.topografix.com/GPX/1/1" xmlns:xsi="http://www.w3.org/2001/XMLSchema-instance" xsi:schemaLocation="http://www.topografix.com/GPX/1/1 http://www.topografix.com/GPX/1/1/gpx.xsd" version="1.1" creator="VisuGPX - https://www.visugpx.com">
  <metadata>
    <name>83 - L -SAINT-MARTIN-DE-PALLIERES </name>
    <desc><![CDATA[83 - L - SAINT-MARTIN-DE-PALLIERES : ND de Santé, les Armands 
2024-03-18]]></desc>
  </metadata>
  <trk>
    <name><![CDATA[SAINT-MARTIN-DE-PALLIERES _ ND de Santé, les Armands  2024-03-18-01]]></name>
    <trkseg>
      <trkpt lat="43.602" lon="5.88739">
        <ele>456.9</ele>
        <time>2024-03-18T08:48:30Z</time>
      </trkpt>
      <trkpt lat="43.60198" lon="5.88739">
        <ele>456.9</ele>
        <time>2024-03-18T08:48:31Z</time>
      </trkpt>
      <trkpt lat="43.60206" lon="5.88731">
        <ele>457.7</ele>
        <time>2024-03-18T08:49:10Z</time>
      </trkpt>
      <trkpt lat="43.60214" lon="5.88725">
        <ele>458</ele>
        <time>2024-03-18T08:49:31Z</time>
      </trkpt>
      <trkpt lat="43.60207" lon="5.88733">
        <ele>458</ele>
        <time>2024-03-18T08:50:09Z</time>
      </trkpt>
      <trkpt lat="43.60198" lon="5.88734">
        <ele>457.8</ele>
        <time>2024-03-18T08:50:54Z</time>
      </trkpt>
      <trkpt lat="43.60202" lon="5.88723">
        <ele>456.5</ele>
        <time>2024-03-18T08:53:26Z</time>
      </trkpt>
      <trkpt lat="43.60206" lon="5.88711">
        <ele>456.4</ele>
        <time>2024-03-18T08:53:39Z</time>
      </trkpt>
      <trkpt lat="43.60215" lon="5.88707">
        <ele>457</ele>
        <time>2024-03-18T08:55:52Z</time>
      </trkpt>
      <trkpt lat="43.60224" lon="5.88706">
        <ele>457.8</ele>
        <time>2024-03-18T08:56:16Z</time>
      </trkpt>
      <trkpt lat="43.60233" lon="5.88707">
        <ele>457.4</ele>
        <time>2024-03-18T08:56:35Z</time>
      </trkpt>
      <trkpt lat="43.60242" lon="5.88711">
        <ele>458</ele>
        <time>2024-03-18T08:56:48Z</time>
      </trkpt>
      <trkpt lat="43.60251" lon="5.88712">
        <ele>457.7</ele>
        <time>2024-03-18T08:57:01Z</time>
      </trkpt>
      <trkpt lat="43.6026" lon="5.88714">
        <ele>457.5</ele>
        <time>2024-03-18T08:57:14Z</time>
      </trkpt>
      <trkpt lat="43.6027" lon="5.88716">
        <ele>457.5</ele>
        <time>2024-03-18T08:57:33Z</time>
      </trkpt>
      <trkpt lat="43.60279" lon="5.88718">
        <ele>458.7</ele>
        <time>2024-03-18T08:57:42Z</time>
      </trkpt>
      <trkpt lat="43.60288" lon="5.8872">
        <ele>458.6</ele>
        <time>2024-03-18T08:58:02Z</time>
      </trkpt>
      <trkpt lat="43.60297" lon="5.88723">
        <ele>458.1</ele>
        <time>2024-03-18T08:58:15Z</time>
      </trkpt>
      <trkpt lat="43.60307" lon="5.88724">
        <ele>458.4</ele>
        <time>2024-03-18T08:58:26Z</time>
      </trkpt>
      <trkpt lat="43.60316" lon="5.88725">
        <ele>459.7</ele>
        <time>2024-03-18T08:58:38Z</time>
      </trkpt>
      <trkpt lat="43.60325" lon="5.88726">
        <ele>460</ele>
        <time>2024-03-18T08:58:51Z</time>
      </trkpt>
      <trkpt lat="43.60334" lon="5.88728">
        <ele>460.6</ele>
        <time>2024-03-18T08:59:01Z</time>
      </trkpt>
      <trkpt lat="43.60344" lon="5.88731">
        <ele>462</ele>
        <time>2024-03-18T08:59:09Z</time>
      </trkpt>
      <trkpt lat="43.60352" lon="5.88738">
        <ele>461.7</ele>
        <time>2024-03-18T08:59:18Z</time>
      </trkpt>
      <trkpt lat="43.60361" lon="5.88734">
        <ele>462.1</ele>
        <time>2024-03-18T08:59:32Z</time>
      </trkpt>
      <trkpt lat="43.60368" lon="5.88725">
        <ele>462.8</ele>
        <time>2024-03-18T08:59:49Z</time>
      </trkpt>
      <trkpt lat="43.60374" lon="5.88715">
        <ele>462.9</ele>
        <time>2024-03-18T08:59:59Z</time>
      </trkpt>
      <trkpt lat="43.60377" lon="5.88703">
        <ele>463.3</ele>
        <time>2024-03-18T09:00:08Z</time>
      </trkpt>
      <trkpt lat="43.6038" lon="5.8869">
        <ele>464.1</ele>
        <time>2024-03-18T09:00:17Z</time>
      </trkpt>
      <trkpt lat="43.60384" lon="5.88679">
        <ele>464.8</ele>
        <time>2024-03-18T09:00:25Z</time>
      </trkpt>
      <trkpt lat="43.60387" lon="5.88667">
        <ele>465.5</ele>
        <time>2024-03-18T09:00:36Z</time>
      </trkpt>
      <trkpt lat="43.6039" lon="5.88655">
        <ele>466.4</ele>
        <time>2024-03-18T09:00:55Z</time>
      </trkpt>
      <trkpt lat="43.60393" lon="5.88642">
        <ele>466.5</ele>
        <time>2024-03-18T09:01:05Z</time>
      </trkpt>
      <trkpt lat="43.60396" lon="5.8863">
        <ele>467.2</ele>
        <time>2024-03-18T09:01:16Z</time>
      </trkpt>
      <trkpt lat="43.60399" lon="5.88618">
        <ele>467.7</ele>
        <time>2024-03-18T09:01:26Z</time>
      </trkpt>
      <trkpt lat="43.60403" lon="5.88606">
        <ele>468.6</ele>
        <time>2024-03-18T09:01:41Z</time>
      </trkpt>
      <trkpt lat="43.60406" lon="5.88593">
        <ele>469.1</ele>
        <time>2024-03-18T09:01:52Z</time>
      </trkpt>
      <trkpt lat="43.60408" lon="5.88581">
        <ele>469.4</ele>
        <time>2024-03-18T09:02:05Z</time>
      </trkpt>
      <trkpt lat="43.60409" lon="5.88567">
        <ele>470.2</ele>
        <time>2024-03-18T09:02:17Z</time>
      </trkpt>
      <trkpt lat="43.60412" lon="5.88554">
        <ele>470.6</ele>
        <time>2024-03-18T09:02:27Z</time>
      </trkpt>
      <trkpt lat="43.60417" lon="5.88543">
        <ele>471.3</ele>
        <time>2024-03-18T09:02:37Z</time>
      </trkpt>
      <trkpt lat="43.60421" lon="5.88531">
        <ele>471.7</ele>
        <time>2024-03-18T09:02:47Z</time>
      </trkpt>
      <trkpt lat="43.60424" lon="5.88519">
        <ele>472.3</ele>
        <time>2024-03-18T09:02:58Z</time>
      </trkpt>
      <trkpt lat="43.60426" lon="5.88506">
        <ele>473.1</ele>
        <time>2024-03-18T09:03:09Z</time>
      </trkpt>
      <trkpt lat="43.6043" lon="5.88494">
        <ele>473.6</ele>
        <time>2024-03-18T09:03:19Z</time>
      </trkpt>
      <trkpt lat="43.60431" lon="5.88482">
        <ele>474.1</ele>
        <time>2024-03-18T09:03:27Z</time>
      </trkpt>
      <trkpt lat="43.60434" lon="5.88468">
        <ele>474.8</ele>
        <time>2024-03-18T09:03:36Z</time>
      </trkpt>
      <trkpt lat="43.60436" lon="5.88455">
        <ele>474.6</ele>
        <time>2024-03-18T09:03:46Z</time>
      </trkpt>
      <trkpt lat="43.60442" lon="5.88444">
        <ele>475</ele>
        <time>2024-03-18T09:03:56Z</time>
      </trkpt>
      <trkpt lat="43.6045" lon="5.88436">
        <ele>475.4</ele>
        <time>2024-03-18T09:04:06Z</time>
      </trkpt>
      <trkpt lat="43.60458" lon="5.88431">
        <ele>476.2</ele>
        <time>2024-03-18T09:04:21Z</time>
      </trkpt>
      <trkpt lat="43.60464" lon="5.88441">
        <ele>476.8</ele>
        <time>2024-03-18T09:04:29Z</time>
      </trkpt>
      <trkpt lat="43.6047" lon="5.88451">
        <ele>477.6</ele>
        <time>2024-03-18T09:04:48Z</time>
      </trkpt>
      <trkpt lat="43.60471" lon="5.88463">
        <ele>478</ele>
        <time>2024-03-18T09:04:57Z</time>
      </trkpt>
      <trkpt lat="43.60475" lon="5.88475">
        <ele>478.2</ele>
        <time>2024-03-18T09:05:07Z</time>
      </trkpt>
      <trkpt lat="43.60477" lon="5.88488">
        <ele>478.7</ele>
        <time>2024-03-18T09:05:16Z</time>
      </trkpt>
      <trkpt lat="43.60477" lon="5.88502">
        <ele>479.3</ele>
        <time>2024-03-18T09:05:26Z</time>
      </trkpt>
      <trkpt lat="43.60478" lon="5.88515">
        <ele>479.7</ele>
        <time>2024-03-18T09:05:34Z</time>
      </trkpt>
      <trkpt lat="43.60477" lon="5.88527">
        <ele>480.1</ele>
        <time>2024-03-18T09:05:43Z</time>
      </trkpt>
      <trkpt lat="43.60478" lon="5.88541">
        <ele>480.8</ele>
        <time>2024-03-18T09:05:53Z</time>
      </trkpt>
      <trkpt lat="43.60479" lon="5.88555">
        <ele>481.5</ele>
        <time>2024-03-18T09:06:03Z</time>
      </trkpt>
      <trkpt lat="43.60479" lon="5.88568">
        <ele>482.1</ele>
        <time>2024-03-18T09:06:13Z</time>
      </trkpt>
      <trkpt lat="43.60481" lon="5.88582">
        <ele>483</ele>
        <time>2024-03-18T09:06:23Z</time>
      </trkpt>
      <trkpt lat="43.60481" lon="5.88594">
        <ele>483.4</ele>
        <time>2024-03-18T09:06:32Z</time>
      </trkpt>
      <trkpt lat="43.60482" lon="5.88608">
        <ele>483.6</ele>
        <time>2024-03-18T09:06:42Z</time>
      </trkpt>
      <trkpt lat="43.60483" lon="5.88622">
        <ele>484.1</ele>
        <time>2024-03-18T09:06:51Z</time>
      </trkpt>
      <trkpt lat="43.60486" lon="5.88634">
        <ele>484.7</ele>
        <time>2024-03-18T09:07:00Z</time>
      </trkpt>
      <trkpt lat="43.60488" lon="5.88647">
        <ele>485.5</ele>
        <time>2024-03-18T09:07:09Z</time>
      </trkpt>
      <trkpt lat="43.60491" lon="5.8866">
        <ele>486.2</ele>
        <time>2024-03-18T09:07:20Z</time>
      </trkpt>
      <trkpt lat="43.60493" lon="5.88673">
        <ele>486.5</ele>
        <time>2024-03-18T09:07:29Z</time>
      </trkpt>
      <trkpt lat="43.60496" lon="5.88685">
        <ele>487</ele>
        <time>2024-03-18T09:07:39Z</time>
      </trkpt>
      <trkpt lat="43.60498" lon="5.88697">
        <ele>487.9</ele>
        <time>2024-03-18T09:07:50Z</time>
      </trkpt>
      <trkpt lat="43.60498" lon="5.88711">
        <ele>488.7</ele>
        <time>2024-03-18T09:08:12Z</time>
      </trkpt>
      <trkpt lat="43.60498" lon="5.88724">
        <ele>489.1</ele>
        <time>2024-03-18T09:08:23Z</time>
      </trkpt>
      <trkpt lat="43.60501" lon="5.88736">
        <ele>489.3</ele>
        <time>2024-03-18T09:08:32Z</time>
      </trkpt>
      <trkpt lat="43.60503" lon="5.88749">
        <ele>489.8</ele>
        <time>2024-03-18T09:08:46Z</time>
      </trkpt>
      <trkpt lat="43.60505" lon="5.88761">
        <ele>490.2</ele>
        <time>2024-03-18T09:09:37Z</time>
      </trkpt>
      <trkpt lat="43.60504" lon="5.88774">
        <ele>491.9</ele>
        <time>2024-03-18T09:10:30Z</time>
      </trkpt>
      <trkpt lat="43.60508" lon="5.88786">
        <ele>492.9</ele>
        <time>2024-03-18T09:10:46Z</time>
      </trkpt>
      <trkpt lat="43.6051" lon="5.88798">
        <ele>493.8</ele>
        <time>2024-03-18T09:10:55Z</time>
      </trkpt>
      <trkpt lat="43.6051" lon="5.8881">
        <ele>494.4</ele>
        <time>2024-03-18T09:11:06Z</time>
      </trkpt>
      <trkpt lat="43.60513" lon="5.88824">
        <ele>495.1</ele>
        <time>2024-03-18T09:11:17Z</time>
      </trkpt>
      <trkpt lat="43.60515" lon="5.88837">
        <ele>495.9</ele>
        <time>2024-03-18T09:11:28Z</time>
      </trkpt>
      <trkpt lat="43.60518" lon="5.88849">
        <ele>496.6</ele>
        <time>2024-03-18T09:11:40Z</time>
      </trkpt>
      <trkpt lat="43.60515" lon="5.88862">
        <ele>497.8</ele>
        <time>2024-03-18T09:12:14Z</time>
      </trkpt>
      <trkpt lat="43.60518" lon="5.88874">
        <ele>498.9</ele>
        <time>2024-03-18T09:12:43Z</time>
      </trkpt>
      <trkpt lat="43.6052" lon="5.88887">
        <ele>499.7</ele>
        <time>2024-03-18T09:12:55Z</time>
      </trkpt>
      <trkpt lat="43.60522" lon="5.889">
        <ele>500.8</ele>
        <time>2024-03-18T09:13:15Z</time>
      </trkpt>
      <trkpt lat="43.60524" lon="5.88913">
        <ele>501.8</ele>
        <time>2024-03-18T09:13:27Z</time>
      </trkpt>
      <trkpt lat="43.60527" lon="5.88925">
        <ele>502.9</ele>
        <time>2024-03-18T09:13:37Z</time>
      </trkpt>
      <trkpt lat="43.6053" lon="5.88937">
        <ele>503.7</ele>
        <time>2024-03-18T09:13:48Z</time>
      </trkpt>
      <trkpt lat="43.60531" lon="5.88951">
        <ele>504.3</ele>
        <time>2024-03-18T09:14:01Z</time>
      </trkpt>
      <trkpt lat="43.60533" lon="5.88963">
        <ele>505.3</ele>
        <time>2024-03-18T09:14:11Z</time>
      </trkpt>
      <trkpt lat="43.60536" lon="5.88976">
        <ele>505.7</ele>
        <time>2024-03-18T09:14:21Z</time>
      </trkpt>
      <trkpt lat="43.60543" lon="5.88984">
        <ele>506.7</ele>
        <time>2024-03-18T09:14:33Z</time>
      </trkpt>
      <trkpt lat="43.60552" lon="5.88981">
        <ele>507.7</ele>
        <time>2024-03-18T09:14:43Z</time>
      </trkpt>
      <trkpt lat="43.60557" lon="5.88969">
        <ele>508.8</ele>
        <time>2024-03-18T09:14:57Z</time>
      </trkpt>
      <trkpt lat="43.60561" lon="5.88957">
        <ele>509.3</ele>
        <time>2024-03-18T09:15:11Z</time>
      </trkpt>
      <trkpt lat="43.60565" lon="5.88945">
        <ele>509.7</ele>
        <time>2024-03-18T09:15:21Z</time>
      </trkpt>
      <trkpt lat="43.60572" lon="5.88937">
        <ele>510.3</ele>
        <time>2024-03-18T09:15:31Z</time>
      </trkpt>
      <trkpt lat="43.60579" lon="5.8893">
        <ele>510.8</ele>
        <time>2024-03-18T09:15:41Z</time>
      </trkpt>
      <trkpt lat="43.60588" lon="5.88925">
        <ele>511.3</ele>
        <time>2024-03-18T09:15:51Z</time>
      </trkpt>
      <trkpt lat="43.60597" lon="5.88921">
        <ele>511.7</ele>
        <time>2024-03-18T09:16:08Z</time>
      </trkpt>
      <trkpt lat="43.60606" lon="5.8892">
        <ele>511.9</ele>
        <time>2024-03-18T09:16:19Z</time>
      </trkpt>
      <trkpt lat="43.60615" lon="5.88917">
        <ele>511.1</ele>
        <time>2024-03-18T09:16:34Z</time>
      </trkpt>
      <trkpt lat="43.60625" lon="5.88915">
        <ele>510.9</ele>
        <time>2024-03-18T09:16:47Z</time>
      </trkpt>
      <trkpt lat="43.60634" lon="5.88916">
        <ele>510.3</ele>
        <time>2024-03-18T09:17:04Z</time>
      </trkpt>
      <trkpt lat="43.60643" lon="5.88921">
        <ele>509.8</ele>
        <time>2024-03-18T09:17:15Z</time>
      </trkpt>
      <trkpt lat="43.60652" lon="5.88925">
        <ele>510.1</ele>
        <time>2024-03-18T09:17:25Z</time>
      </trkpt>
      <trkpt lat="43.60661" lon="5.8893">
        <ele>510</ele>
        <time>2024-03-18T09:17:35Z</time>
      </trkpt>
      <trkpt lat="43.6067" lon="5.88934">
        <ele>509.6</ele>
        <time>2024-03-18T09:17:45Z</time>
      </trkpt>
      <trkpt lat="43.60679" lon="5.88939">
        <ele>509</ele>
        <time>2024-03-18T09:17:55Z</time>
      </trkpt>
      <trkpt lat="43.60688" lon="5.88944">
        <ele>508.1</ele>
        <time>2024-03-18T09:18:05Z</time>
      </trkpt>
      <trkpt lat="43.60696" lon="5.8895">
        <ele>506.9</ele>
        <time>2024-03-18T09:18:15Z</time>
      </trkpt>
      <trkpt lat="43.60705" lon="5.88957">
        <ele>506.3</ele>
        <time>2024-03-18T09:18:26Z</time>
      </trkpt>
      <trkpt lat="43.60713" lon="5.88965">
        <ele>505.8</ele>
        <time>2024-03-18T09:18:36Z</time>
      </trkpt>
      <trkpt lat="43.60721" lon="5.88973">
        <ele>505.4</ele>
        <time>2024-03-18T09:18:46Z</time>
      </trkpt>
      <trkpt lat="43.60729" lon="5.88979">
        <ele>505</ele>
        <time>2024-03-18T09:18:55Z</time>
      </trkpt>
      <trkpt lat="43.60737" lon="5.88986">
        <ele>504.9</ele>
        <time>2024-03-18T09:19:05Z</time>
      </trkpt>
      <trkpt lat="43.60744" lon="5.88993">
        <ele>504.8</ele>
        <time>2024-03-18T09:19:15Z</time>
      </trkpt>
      <trkpt lat="43.60752" lon="5.88999">
        <ele>504.1</ele>
        <time>2024-03-18T09:19:25Z</time>
      </trkpt>
      <trkpt lat="43.60761" lon="5.89005">
        <ele>503.1</ele>
        <time>2024-03-18T09:19:36Z</time>
      </trkpt>
      <trkpt lat="43.60771" lon="5.89009">
        <ele>502.5</ele>
        <time>2024-03-18T09:19:46Z</time>
      </trkpt>
      <trkpt lat="43.60779" lon="5.89015">
        <ele>502</ele>
        <time>2024-03-18T09:19:57Z</time>
      </trkpt>
      <trkpt lat="43.60788" lon="5.89021">
        <ele>501.4</ele>
        <time>2024-03-18T09:20:09Z</time>
      </trkpt>
      <trkpt lat="43.60796" lon="5.89027">
        <ele>501.1</ele>
        <time>2024-03-18T09:20:20Z</time>
      </trkpt>
      <trkpt lat="43.60805" lon="5.89032">
        <ele>500.8</ele>
        <time>2024-03-18T09:20:31Z</time>
      </trkpt>
      <trkpt lat="43.60813" lon="5.89038">
        <ele>501</ele>
        <time>2024-03-18T09:20:41Z</time>
      </trkpt>
      <trkpt lat="43.60822" lon="5.89041">
        <ele>500.7</ele>
        <time>2024-03-18T09:20:49Z</time>
      </trkpt>
      <trkpt lat="43.60831" lon="5.89043">
        <ele>500.4</ele>
        <time>2024-03-18T09:20:58Z</time>
      </trkpt>
      <trkpt lat="43.6084" lon="5.89045">
        <ele>499.9</ele>
        <time>2024-03-18T09:21:08Z</time>
      </trkpt>
      <trkpt lat="43.6085" lon="5.89047">
        <ele>499.1</ele>
        <time>2024-03-18T09:21:17Z</time>
      </trkpt>
      <trkpt lat="43.60859" lon="5.89051">
        <ele>498.4</ele>
        <time>2024-03-18T09:21:27Z</time>
      </trkpt>
      <trkpt lat="43.60868" lon="5.89052">
        <ele>498</ele>
        <time>2024-03-18T09:21:36Z</time>
      </trkpt>
      <trkpt lat="43.60877" lon="5.89054">
        <ele>497.5</ele>
        <time>2024-03-18T09:21:45Z</time>
      </trkpt>
      <trkpt lat="43.60887" lon="5.89055">
        <ele>497.2</ele>
        <time>2024-03-18T09:21:56Z</time>
      </trkpt>
      <trkpt lat="43.60896" lon="5.89059">
        <ele>497</ele>
        <time>2024-03-18T09:22:07Z</time>
      </trkpt>
      <trkpt lat="43.60906" lon="5.8906">
        <ele>496</ele>
        <time>2024-03-18T09:22:17Z</time>
      </trkpt>
      <trkpt lat="43.60915" lon="5.89064">
        <ele>496</ele>
        <time>2024-03-18T09:22:27Z</time>
      </trkpt>
      <trkpt lat="43.60924" lon="5.89067">
        <ele>495.4</ele>
        <time>2024-03-18T09:22:38Z</time>
      </trkpt>
      <trkpt lat="43.60933" lon="5.8907">
        <ele>494.7</ele>
        <time>2024-03-18T09:22:49Z</time>
      </trkpt>
      <trkpt lat="43.60942" lon="5.89074">
        <ele>494.7</ele>
        <time>2024-03-18T09:22:58Z</time>
      </trkpt>
      <trkpt lat="43.60951" lon="5.89078">
        <ele>494.2</ele>
        <time>2024-03-18T09:23:09Z</time>
      </trkpt>
      <trkpt lat="43.6096" lon="5.89082">
        <ele>493.9</ele>
        <time>2024-03-18T09:23:19Z</time>
      </trkpt>
      <trkpt lat="43.60969" lon="5.89082">
        <ele>493.1</ele>
        <time>2024-03-18T09:23:37Z</time>
      </trkpt>
      <trkpt lat="43.60978" lon="5.89084">
        <ele>492.5</ele>
        <time>2024-03-18T09:23:51Z</time>
      </trkpt>
      <trkpt lat="43.60987" lon="5.89086">
        <ele>492</ele>
        <time>2024-03-18T09:24:01Z</time>
      </trkpt>
      <trkpt lat="43.60997" lon="5.89088">
        <ele>491.3</ele>
        <time>2024-03-18T09:24:12Z</time>
      </trkpt>
      <trkpt lat="43.61006" lon="5.89091">
        <ele>491</ele>
        <time>2024-03-18T09:24:22Z</time>
      </trkpt>
      <trkpt lat="43.61015" lon="5.89093">
        <ele>490.6</ele>
        <time>2024-03-18T09:24:33Z</time>
      </trkpt>
      <trkpt lat="43.61025" lon="5.89094">
        <ele>489.8</ele>
        <time>2024-03-18T09:24:42Z</time>
      </trkpt>
      <trkpt lat="43.61034" lon="5.89095">
        <ele>489.4</ele>
        <time>2024-03-18T09:24:51Z</time>
      </trkpt>
      <trkpt lat="43.61043" lon="5.89096">
        <ele>489.3</ele>
        <time>2024-03-18T09:24:59Z</time>
      </trkpt>
      <trkpt lat="43.61052" lon="5.89096">
        <ele>489.1</ele>
        <time>2024-03-18T09:25:09Z</time>
      </trkpt>
      <trkpt lat="43.61062" lon="5.89096">
        <ele>489.2</ele>
        <time>2024-03-18T09:25:19Z</time>
      </trkpt>
      <trkpt lat="43.61072" lon="5.89096">
        <ele>488.6</ele>
        <time>2024-03-18T09:25:28Z</time>
      </trkpt>
      <trkpt lat="43.61082" lon="5.89096">
        <ele>488.2</ele>
        <time>2024-03-18T09:25:37Z</time>
      </trkpt>
      <trkpt lat="43.61092" lon="5.89096">
        <ele>488.3</ele>
        <time>2024-03-18T09:25:46Z</time>
      </trkpt>
      <trkpt lat="43.61101" lon="5.89097">
        <ele>488.1</ele>
        <time>2024-03-18T09:25:54Z</time>
      </trkpt>
      <trkpt lat="43.61111" lon="5.89097">
        <ele>488.7</ele>
        <time>2024-03-18T09:26:17Z</time>
      </trkpt>
      <trkpt lat="43.6112" lon="5.891">
        <ele>488.6</ele>
        <time>2024-03-18T09:26:27Z</time>
      </trkpt>
      <trkpt lat="43.6113" lon="5.89101">
        <ele>489.7</ele>
        <time>2024-03-18T09:26:37Z</time>
      </trkpt>
      <trkpt lat="43.61139" lon="5.891">
        <ele>490.7</ele>
        <time>2024-03-18T09:27:00Z</time>
      </trkpt>
      <trkpt lat="43.61148" lon="5.89096">
        <ele>490.8</ele>
        <time>2024-03-18T09:27:17Z</time>
      </trkpt>
      <trkpt lat="43.61157" lon="5.89093">
        <ele>491.7</ele>
        <time>2024-03-18T09:27:27Z</time>
      </trkpt>
      <trkpt lat="43.61166" lon="5.89089">
        <ele>492.3</ele>
        <time>2024-03-18T09:27:37Z</time>
      </trkpt>
      <trkpt lat="43.61176" lon="5.89085">
        <ele>492.9</ele>
        <time>2024-03-18T09:27:50Z</time>
      </trkpt>
      <trkpt lat="43.61184" lon="5.8908">
        <ele>493.5</ele>
        <time>2024-03-18T09:28:00Z</time>
      </trkpt>
      <trkpt lat="43.61194" lon="5.89078">
        <ele>493.7</ele>
        <time>2024-03-18T09:28:11Z</time>
      </trkpt>
      <trkpt lat="43.61202" lon="5.89073">
        <ele>494.1</ele>
        <time>2024-03-18T09:28:26Z</time>
      </trkpt>
      <trkpt lat="43.61211" lon="5.89068">
        <ele>494</ele>
        <time>2024-03-18T09:28:52Z</time>
      </trkpt>
      <trkpt lat="43.61219" lon="5.89063">
        <ele>494.4</ele>
        <time>2024-03-18T09:29:28Z</time>
      </trkpt>
      <trkpt lat="43.61227" lon="5.89069">
        <ele>494.2</ele>
        <time>2024-03-18T09:30:21Z</time>
      </trkpt>
      <trkpt lat="43.61219" lon="5.89065">
        <ele>494.5</ele>
        <time>2024-03-18T09:30:50Z</time>
      </trkpt>
      <trkpt lat="43.61228" lon="5.89066">
        <ele>494</ele>
        <time>2024-03-18T09:33:03Z</time>
      </trkpt>
      <trkpt lat="43.61237" lon="5.89071">
        <ele>493.7</ele>
        <time>2024-03-18T09:33:43Z</time>
      </trkpt>
      <trkpt lat="43.61246" lon="5.89075">
        <ele>493.6</ele>
        <time>2024-03-18T09:33:52Z</time>
      </trkpt>
      <trkpt lat="43.61255" lon="5.8908">
        <ele>493.4</ele>
        <time>2024-03-18T09:34:00Z</time>
      </trkpt>
      <trkpt lat="43.61264" lon="5.89086">
        <ele>493</ele>
        <time>2024-03-18T09:34:09Z</time>
      </trkpt>
      <trkpt lat="43.61273" lon="5.89091">
        <ele>492.5</ele>
        <time>2024-03-18T09:34:23Z</time>
      </trkpt>
      <trkpt lat="43.61281" lon="5.89097">
        <ele>492.3</ele>
        <time>2024-03-18T09:34:33Z</time>
      </trkpt>
      <trkpt lat="43.6129" lon="5.89103">
        <ele>491.9</ele>
        <time>2024-03-18T09:34:41Z</time>
      </trkpt>
      <trkpt lat="43.61297" lon="5.89111">
        <ele>491.1</ele>
        <time>2024-03-18T09:34:49Z</time>
      </trkpt>
      <trkpt lat="43.61306" lon="5.89113">
        <ele>490.5</ele>
        <time>2024-03-18T09:35:07Z</time>
      </trkpt>
      <trkpt lat="43.61311" lon="5.89125">
        <ele>490.1</ele>
        <time>2024-03-18T09:35:41Z</time>
      </trkpt>
      <trkpt lat="43.61318" lon="5.89135">
        <ele>489.8</ele>
        <time>2024-03-18T09:35:50Z</time>
      </trkpt>
      <trkpt lat="43.61324" lon="5.89144">
        <ele>489.4</ele>
        <time>2024-03-18T09:35:58Z</time>
      </trkpt>
      <trkpt lat="43.61331" lon="5.89155">
        <ele>488.8</ele>
        <time>2024-03-18T09:36:06Z</time>
      </trkpt>
      <trkpt lat="43.61338" lon="5.89164">
        <ele>488</ele>
        <time>2024-03-18T09:36:14Z</time>
      </trkpt>
      <trkpt lat="43.61346" lon="5.8917">
        <ele>487.3</ele>
        <time>2024-03-18T09:36:22Z</time>
      </trkpt>
      <trkpt lat="43.61355" lon="5.89172">
        <ele>487.2</ele>
        <time>2024-03-18T09:36:31Z</time>
      </trkpt>
      <trkpt lat="43.61365" lon="5.89173">
        <ele>486.5</ele>
        <time>2024-03-18T09:36:41Z</time>
      </trkpt>
      <trkpt lat="43.61374" lon="5.89176">
        <ele>486</ele>
        <time>2024-03-18T09:36:52Z</time>
      </trkpt>
      <trkpt lat="43.61382" lon="5.8918">
        <ele>485.6</ele>
        <time>2024-03-18T09:37:15Z</time>
      </trkpt>
      <trkpt lat="43.61389" lon="5.8919">
        <ele>485.3</ele>
        <time>2024-03-18T09:37:25Z</time>
      </trkpt>
      <trkpt lat="43.61394" lon="5.89201">
        <ele>484.9</ele>
        <time>2024-03-18T09:37:37Z</time>
      </trkpt>
      <trkpt lat="43.61398" lon="5.89213">
        <ele>484.2</ele>
        <time>2024-03-18T09:37:49Z</time>
      </trkpt>
      <trkpt lat="43.61404" lon="5.89223">
        <ele>483.5</ele>
        <time>2024-03-18T09:37:59Z</time>
      </trkpt>
      <trkpt lat="43.6141" lon="5.89234">
        <ele>482.7</ele>
        <time>2024-03-18T09:38:14Z</time>
      </trkpt>
      <trkpt lat="43.61416" lon="5.89244">
        <ele>482.3</ele>
        <time>2024-03-18T09:38:24Z</time>
      </trkpt>
      <trkpt lat="43.6142" lon="5.89255">
        <ele>482.2</ele>
        <time>2024-03-18T09:38:34Z</time>
      </trkpt>
      <trkpt lat="43.61423" lon="5.89267">
        <ele>481.5</ele>
        <time>2024-03-18T09:38:44Z</time>
      </trkpt>
      <trkpt lat="43.61424" lon="5.89279">
        <ele>481.1</ele>
        <time>2024-03-18T09:38:57Z</time>
      </trkpt>
      <trkpt lat="43.61424" lon="5.89291">
        <ele>480.6</ele>
        <time>2024-03-18T09:39:08Z</time>
      </trkpt>
      <trkpt lat="43.61424" lon="5.89305">
        <ele>480.3</ele>
        <time>2024-03-18T09:39:20Z</time>
      </trkpt>
      <trkpt lat="43.61423" lon="5.89318">
        <ele>479.8</ele>
        <time>2024-03-18T09:39:30Z</time>
      </trkpt>
      <trkpt lat="43.61423" lon="5.89331">
        <ele>479.4</ele>
        <time>2024-03-18T09:39:40Z</time>
      </trkpt>
      <trkpt lat="43.61421" lon="5.89345">
        <ele>478.5</ele>
        <time>2024-03-18T09:39:59Z</time>
      </trkpt>
      <trkpt lat="43.61417" lon="5.89356">
        <ele>478.3</ele>
        <time>2024-03-18T09:40:11Z</time>
      </trkpt>
      <trkpt lat="43.61417" lon="5.89369">
        <ele>478.3</ele>
        <time>2024-03-18T09:40:26Z</time>
      </trkpt>
      <trkpt lat="43.61418" lon="5.89382">
        <ele>477.9</ele>
        <time>2024-03-18T09:40:34Z</time>
      </trkpt>
      <trkpt lat="43.61416" lon="5.89395">
        <ele>477.4</ele>
        <time>2024-03-18T09:40:43Z</time>
      </trkpt>
      <trkpt lat="43.61415" lon="5.89409">
        <ele>476.7</ele>
        <time>2024-03-18T09:40:52Z</time>
      </trkpt>
      <trkpt lat="43.61414" lon="5.89422">
        <ele>476.2</ele>
        <time>2024-03-18T09:41:02Z</time>
      </trkpt>
      <trkpt lat="43.61413" lon="5.89435">
        <ele>475.6</ele>
        <time>2024-03-18T09:41:11Z</time>
      </trkpt>
      <trkpt lat="43.61413" lon="5.89447">
        <ele>475.3</ele>
        <time>2024-03-18T09:41:20Z</time>
      </trkpt>
      <trkpt lat="43.61417" lon="5.89459">
        <ele>474.9</ele>
        <time>2024-03-18T09:41:29Z</time>
      </trkpt>
      <trkpt lat="43.61424" lon="5.89468">
        <ele>473.9</ele>
        <time>2024-03-18T09:41:50Z</time>
      </trkpt>
      <trkpt lat="43.61433" lon="5.89469">
        <ele>473.4</ele>
        <time>2024-03-18T09:42:00Z</time>
      </trkpt>
      <trkpt lat="43.61442" lon="5.89469">
        <ele>473.2</ele>
        <time>2024-03-18T09:42:15Z</time>
      </trkpt>
      <trkpt lat="43.61452" lon="5.89471">
        <ele>472.8</ele>
        <time>2024-03-18T09:42:24Z</time>
      </trkpt>
      <trkpt lat="43.61461" lon="5.89477">
        <ele>472.3</ele>
        <time>2024-03-18T09:42:33Z</time>
      </trkpt>
      <trkpt lat="43.6147" lon="5.89483">
        <ele>471.9</ele>
        <time>2024-03-18T09:42:41Z</time>
      </trkpt>
      <trkpt lat="43.61478" lon="5.89489">
        <ele>471.3</ele>
        <time>2024-03-18T09:42:49Z</time>
      </trkpt>
      <trkpt lat="43.61487" lon="5.89494">
        <ele>470.6</ele>
        <time>2024-03-18T09:42:57Z</time>
      </trkpt>
      <trkpt lat="43.61497" lon="5.89495">
        <ele>470.1</ele>
        <time>2024-03-18T09:43:05Z</time>
      </trkpt>
      <trkpt lat="43.61506" lon="5.89494">
        <ele>469.6</ele>
        <time>2024-03-18T09:43:13Z</time>
      </trkpt>
      <trkpt lat="43.61516" lon="5.8949">
        <ele>469.7</ele>
        <time>2024-03-18T09:43:22Z</time>
      </trkpt>
      <trkpt lat="43.61524" lon="5.89484">
        <ele>469.5</ele>
        <time>2024-03-18T09:43:30Z</time>
      </trkpt>
      <trkpt lat="43.61533" lon="5.8948">
        <ele>469.3</ele>
        <time>2024-03-18T09:43:39Z</time>
      </trkpt>
      <trkpt lat="43.61543" lon="5.89477">
        <ele>469.1</ele>
        <time>2024-03-18T09:43:48Z</time>
      </trkpt>
      <trkpt lat="43.61552" lon="5.89474">
        <ele>469</ele>
        <time>2024-03-18T09:43:56Z</time>
      </trkpt>
      <trkpt lat="43.61561" lon="5.89469">
        <ele>468.3</ele>
        <time>2024-03-18T09:44:06Z</time>
      </trkpt>
      <trkpt lat="43.6157" lon="5.89464">
        <ele>467.6</ele>
        <time>2024-03-18T09:44:15Z</time>
      </trkpt>
      <trkpt lat="43.61578" lon="5.89459">
        <ele>466.9</ele>
        <time>2024-03-18T09:44:24Z</time>
      </trkpt>
      <trkpt lat="43.61587" lon="5.89455">
        <ele>466.5</ele>
        <time>2024-03-18T09:44:34Z</time>
      </trkpt>
      <trkpt lat="43.61597" lon="5.89451">
        <ele>465.6</ele>
        <time>2024-03-18T09:44:43Z</time>
      </trkpt>
      <trkpt lat="43.61606" lon="5.89447">
        <ele>465.2</ele>
        <time>2024-03-18T09:44:52Z</time>
      </trkpt>
      <trkpt lat="43.61615" lon="5.89443">
        <ele>465</ele>
        <time>2024-03-18T09:45:01Z</time>
      </trkpt>
      <trkpt lat="43.61624" lon="5.89438">
        <ele>464.7</ele>
        <time>2024-03-18T09:45:11Z</time>
      </trkpt>
      <trkpt lat="43.61633" lon="5.89434">
        <ele>464</ele>
        <time>2024-03-18T09:45:25Z</time>
      </trkpt>
      <trkpt lat="43.61643" lon="5.89431">
        <ele>463.8</ele>
        <time>2024-03-18T09:45:34Z</time>
      </trkpt>
      <trkpt lat="43.61652" lon="5.89428">
        <ele>463.6</ele>
        <time>2024-03-18T09:45:42Z</time>
      </trkpt>
      <trkpt lat="43.61661" lon="5.89425">
        <ele>463.6</ele>
        <time>2024-03-18T09:45:51Z</time>
      </trkpt>
      <trkpt lat="43.6167" lon="5.89421">
        <ele>463.3</ele>
        <time>2024-03-18T09:46:01Z</time>
      </trkpt>
      <trkpt lat="43.61679" lon="5.89416">
        <ele>463.2</ele>
        <time>2024-03-18T09:46:10Z</time>
      </trkpt>
      <trkpt lat="43.61688" lon="5.89411">
        <ele>463</ele>
        <time>2024-03-18T09:46:18Z</time>
      </trkpt>
      <trkpt lat="43.61697" lon="5.89408">
        <ele>462.7</ele>
        <time>2024-03-18T09:46:26Z</time>
      </trkpt>
      <trkpt lat="43.61706" lon="5.89405">
        <ele>462.1</ele>
        <time>2024-03-18T09:46:36Z</time>
      </trkpt>
      <trkpt lat="43.61715" lon="5.89401">
        <ele>461.8</ele>
        <time>2024-03-18T09:46:45Z</time>
      </trkpt>
      <trkpt lat="43.61725" lon="5.89399">
        <ele>461.5</ele>
        <time>2024-03-18T09:46:54Z</time>
      </trkpt>
      <trkpt lat="43.61734" lon="5.89397">
        <ele>460.7</ele>
        <time>2024-03-18T09:47:02Z</time>
      </trkpt>
      <trkpt lat="43.61744" lon="5.89394">
        <ele>460.2</ele>
        <time>2024-03-18T09:47:12Z</time>
      </trkpt>
      <trkpt lat="43.61753" lon="5.89393">
        <ele>459.7</ele>
        <time>2024-03-18T09:47:21Z</time>
      </trkpt>
      <trkpt lat="43.61763" lon="5.89389">
        <ele>459.2</ele>
        <time>2024-03-18T09:47:31Z</time>
      </trkpt>
      <trkpt lat="43.61772" lon="5.89385">
        <ele>459.3</ele>
        <time>2024-03-18T09:47:41Z</time>
      </trkpt>
      <trkpt lat="43.61781" lon="5.8938">
        <ele>459.6</ele>
        <time>2024-03-18T09:47:50Z</time>
      </trkpt>
      <trkpt lat="43.6179" lon="5.89375">
        <ele>460</ele>
        <time>2024-03-18T09:47:59Z</time>
      </trkpt>
      <trkpt lat="43.61799" lon="5.89369">
        <ele>459.7</ele>
        <time>2024-03-18T09:48:09Z</time>
      </trkpt>
      <trkpt lat="43.61808" lon="5.89365">
        <ele>459.9</ele>
        <time>2024-03-18T09:48:19Z</time>
      </trkpt>
      <trkpt lat="43.61815" lon="5.89358">
        <ele>460</ele>
        <time>2024-03-18T09:48:29Z</time>
      </trkpt>
      <trkpt lat="43.61823" lon="5.89351">
        <ele>460.2</ele>
        <time>2024-03-18T09:48:39Z</time>
      </trkpt>
      <trkpt lat="43.61829" lon="5.89341">
        <ele>460.9</ele>
        <time>2024-03-18T09:48:50Z</time>
      </trkpt>
      <trkpt lat="43.61836" lon="5.89332">
        <ele>461.5</ele>
        <time>2024-03-18T09:49:01Z</time>
      </trkpt>
      <trkpt lat="43.61841" lon="5.89321">
        <ele>461.9</ele>
        <time>2024-03-18T09:49:19Z</time>
      </trkpt>
      <trkpt lat="43.61832" lon="5.89322">
        <ele>462.6</ele>
        <time>2024-03-18T09:51:28Z</time>
      </trkpt>
      <trkpt lat="43.61823" lon="5.89325">
        <ele>463.6</ele>
        <time>2024-03-18T09:51:37Z</time>
      </trkpt>
      <trkpt lat="43.61833" lon="5.89322">
        <ele>463.3</ele>
        <time>2024-03-18T09:52:36Z</time>
      </trkpt>
      <trkpt lat="43.6184" lon="5.89314">
        <ele>463.6</ele>
        <time>2024-03-18T09:52:46Z</time>
      </trkpt>
      <trkpt lat="43.61846" lon="5.89305">
        <ele>463.7</ele>
        <time>2024-03-18T09:52:57Z</time>
      </trkpt>
      <trkpt lat="43.61845" lon="5.89292">
        <ele>463.7</ele>
        <time>2024-03-18T09:53:10Z</time>
      </trkpt>
      <trkpt lat="43.61846" lon="5.89279">
        <ele>463.4</ele>
        <time>2024-03-18T09:53:19Z</time>
      </trkpt>
      <trkpt lat="43.61847" lon="5.89266">
        <ele>463.1</ele>
        <time>2024-03-18T09:53:29Z</time>
      </trkpt>
      <trkpt lat="43.61851" lon="5.89253">
        <ele>463.1</ele>
        <time>2024-03-18T09:53:40Z</time>
      </trkpt>
      <trkpt lat="43.61852" lon="5.8924">
        <ele>463.2</ele>
        <time>2024-03-18T09:53:50Z</time>
      </trkpt>
      <trkpt lat="43.61856" lon="5.89228">
        <ele>462.8</ele>
        <time>2024-03-18T09:54:03Z</time>
      </trkpt>
      <trkpt lat="43.61856" lon="5.89215">
        <ele>462.1</ele>
        <time>2024-03-18T09:54:12Z</time>
      </trkpt>
      <trkpt lat="43.61857" lon="5.89202">
        <ele>461.8</ele>
        <time>2024-03-18T09:54:21Z</time>
      </trkpt>
      <trkpt lat="43.61857" lon="5.89188">
        <ele>459.9</ele>
        <time>2024-03-18T09:54:30Z</time>
      </trkpt>
      <trkpt lat="43.61857" lon="5.89175">
        <ele>460.8</ele>
        <time>2024-03-18T09:54:38Z</time>
      </trkpt>
      <trkpt lat="43.61857" lon="5.89162">
        <ele>461.8</ele>
        <time>2024-03-18T09:54:46Z</time>
      </trkpt>
      <trkpt lat="43.61855" lon="5.89149">
        <ele>462.2</ele>
        <time>2024-03-18T09:54:54Z</time>
      </trkpt>
      <trkpt lat="43.61856" lon="5.89136">
        <ele>462.1</ele>
        <time>2024-03-18T09:55:05Z</time>
      </trkpt>
      <trkpt lat="43.61854" lon="5.89124">
        <ele>462.3</ele>
        <time>2024-03-18T09:55:17Z</time>
      </trkpt>
      <trkpt lat="43.61849" lon="5.89112">
        <ele>462.8</ele>
        <time>2024-03-18T09:55:56Z</time>
      </trkpt>
      <trkpt lat="43.61845" lon="5.89101">
        <ele>462.9</ele>
        <time>2024-03-18T09:56:27Z</time>
      </trkpt>
      <trkpt lat="43.6185" lon="5.89112">
        <ele>462.6</ele>
        <time>2024-03-18T09:57:26Z</time>
      </trkpt>
      <trkpt lat="43.61856" lon="5.89121">
        <ele>462.6</ele>
        <time>2024-03-18T09:59:44Z</time>
      </trkpt>
      <trkpt lat="43.61865" lon="5.89126">
        <ele>462.1</ele>
        <time>2024-03-18T10:00:21Z</time>
      </trkpt>
      <trkpt lat="43.61871" lon="5.89135">
        <ele>462.2</ele>
        <time>2024-03-18T10:00:52Z</time>
      </trkpt>
      <trkpt lat="43.61878" lon="5.89145">
        <ele>460.4</ele>
        <time>2024-03-18T10:01:54Z</time>
      </trkpt>
      <trkpt lat="43.61884" lon="5.89155">
        <ele>461.9</ele>
        <time>2024-03-18T10:02:04Z</time>
      </trkpt>
      <trkpt lat="43.61891" lon="5.89164">
        <ele>461.2</ele>
        <time>2024-03-18T10:02:14Z</time>
      </trkpt>
      <trkpt lat="43.61898" lon="5.89173">
        <ele>461.2</ele>
        <time>2024-03-18T10:02:23Z</time>
      </trkpt>
      <trkpt lat="43.61905" lon="5.89182">
        <ele>461.2</ele>
        <time>2024-03-18T10:02:37Z</time>
      </trkpt>
      <trkpt lat="43.61913" lon="5.89189">
        <ele>460.8</ele>
        <time>2024-03-18T10:02:48Z</time>
      </trkpt>
      <trkpt lat="43.61919" lon="5.89199">
        <ele>461.1</ele>
        <time>2024-03-18T10:02:59Z</time>
      </trkpt>
      <trkpt lat="43.61924" lon="5.89209">
        <ele>461.4</ele>
        <time>2024-03-18T10:03:28Z</time>
      </trkpt>
      <trkpt lat="43.6193" lon="5.89219">
        <ele>461.6</ele>
        <time>2024-03-18T10:03:40Z</time>
      </trkpt>
      <trkpt lat="43.61937" lon="5.89228">
        <ele>461.9</ele>
        <time>2024-03-18T10:03:50Z</time>
      </trkpt>
      <trkpt lat="43.61943" lon="5.89239">
        <ele>462</ele>
        <time>2024-03-18T10:04:02Z</time>
      </trkpt>
      <trkpt lat="43.61952" lon="5.89243">
        <ele>461.8</ele>
        <time>2024-03-18T10:04:22Z</time>
      </trkpt>
      <trkpt lat="43.6196" lon="5.89248">
        <ele>461.4</ele>
        <time>2024-03-18T10:04:40Z</time>
      </trkpt>
      <trkpt lat="43.61968" lon="5.89253">
        <ele>461.9</ele>
        <time>2024-03-18T10:04:52Z</time>
      </trkpt>
      <trkpt lat="43.61977" lon="5.89254">
        <ele>462</ele>
        <time>2024-03-18T10:05:04Z</time>
      </trkpt>
      <trkpt lat="43.61986" lon="5.89256">
        <ele>462.3</ele>
        <time>2024-03-18T10:05:41Z</time>
      </trkpt>
      <trkpt lat="43.61995" lon="5.89259">
        <ele>462.7</ele>
        <time>2024-03-18T10:05:55Z</time>
      </trkpt>
      <trkpt lat="43.62004" lon="5.8926">
        <ele>462.8</ele>
        <time>2024-03-18T10:06:08Z</time>
      </trkpt>
      <trkpt lat="43.62012" lon="5.89265">
        <ele>463.1</ele>
        <time>2024-03-18T10:06:19Z</time>
      </trkpt>
      <trkpt lat="43.62021" lon="5.8927">
        <ele>463.1</ele>
        <time>2024-03-18T10:06:34Z</time>
      </trkpt>
      <trkpt lat="43.62029" lon="5.89277">
        <ele>464.5</ele>
        <time>2024-03-18T10:06:46Z</time>
      </trkpt>
      <trkpt lat="43.62038" lon="5.89282">
        <ele>464.1</ele>
        <time>2024-03-18T10:06:56Z</time>
      </trkpt>
      <trkpt lat="43.62046" lon="5.8929">
        <ele>463.6</ele>
        <time>2024-03-18T10:07:07Z</time>
      </trkpt>
      <trkpt lat="43.62051" lon="5.893">
        <ele>463.5</ele>
        <time>2024-03-18T10:07:21Z</time>
      </trkpt>
      <trkpt lat="43.62053" lon="5.89312">
        <ele>464.6</ele>
        <time>2024-03-18T10:07:44Z</time>
      </trkpt>
      <trkpt lat="43.6206" lon="5.8932">
        <ele>464.6</ele>
        <time>2024-03-18T10:07:55Z</time>
      </trkpt>
      <trkpt lat="43.62068" lon="5.89326">
        <ele>464.5</ele>
        <time>2024-03-18T10:08:06Z</time>
      </trkpt>
      <trkpt lat="43.62077" lon="5.89332">
        <ele>464.6</ele>
        <time>2024-03-18T10:08:17Z</time>
      </trkpt>
      <trkpt lat="43.62087" lon="5.89334">
        <ele>464.9</ele>
        <time>2024-03-18T10:08:30Z</time>
      </trkpt>
      <trkpt lat="43.62096" lon="5.89337">
        <ele>465</ele>
        <time>2024-03-18T10:08:40Z</time>
      </trkpt>
      <trkpt lat="43.62106" lon="5.89339">
        <ele>465.3</ele>
        <time>2024-03-18T10:08:51Z</time>
      </trkpt>
      <trkpt lat="43.62115" lon="5.89343">
        <ele>465.5</ele>
        <time>2024-03-18T10:09:02Z</time>
      </trkpt>
      <trkpt lat="43.62124" lon="5.89347">
        <ele>466.3</ele>
        <time>2024-03-18T10:09:13Z</time>
      </trkpt>
      <trkpt lat="43.62133" lon="5.89351">
        <ele>466.5</ele>
        <time>2024-03-18T10:09:24Z</time>
      </trkpt>
      <trkpt lat="43.62142" lon="5.89356">
        <ele>466.6</ele>
        <time>2024-03-18T10:09:36Z</time>
      </trkpt>
      <trkpt lat="43.6215" lon="5.89362">
        <ele>466.9</ele>
        <time>2024-03-18T10:09:45Z</time>
      </trkpt>
      <trkpt lat="43.62158" lon="5.8937">
        <ele>467</ele>
        <time>2024-03-18T10:09:56Z</time>
      </trkpt>
      <trkpt lat="43.62166" lon="5.89378">
        <ele>467.3</ele>
        <time>2024-03-18T10:10:07Z</time>
      </trkpt>
      <trkpt lat="43.62173" lon="5.89387">
        <ele>467.3</ele>
        <time>2024-03-18T10:10:17Z</time>
      </trkpt>
      <trkpt lat="43.6218" lon="5.89395">
        <ele>467.4</ele>
        <time>2024-03-18T10:10:27Z</time>
      </trkpt>
      <trkpt lat="43.62187" lon="5.89403">
        <ele>467.5</ele>
        <time>2024-03-18T10:10:37Z</time>
      </trkpt>
      <trkpt lat="43.62195" lon="5.8941">
        <ele>467.2</ele>
        <time>2024-03-18T10:10:46Z</time>
      </trkpt>
      <trkpt lat="43.62202" lon="5.89419">
        <ele>466.5</ele>
        <time>2024-03-18T10:10:58Z</time>
      </trkpt>
      <trkpt lat="43.62209" lon="5.89426">
        <ele>466.2</ele>
        <time>2024-03-18T10:11:08Z</time>
      </trkpt>
      <trkpt lat="43.62216" lon="5.89437">
        <ele>465.8</ele>
        <time>2024-03-18T10:11:20Z</time>
      </trkpt>
      <trkpt lat="43.62223" lon="5.89446">
        <ele>465.3</ele>
        <time>2024-03-18T10:11:34Z</time>
      </trkpt>
      <trkpt lat="43.62229" lon="5.89456">
        <ele>465</ele>
        <time>2024-03-18T10:11:43Z</time>
      </trkpt>
      <trkpt lat="43.62236" lon="5.89464">
        <ele>464.7</ele>
        <time>2024-03-18T10:11:52Z</time>
      </trkpt>
      <trkpt lat="43.62243" lon="5.89472">
        <ele>464.3</ele>
        <time>2024-03-18T10:12:13Z</time>
      </trkpt>
      <trkpt lat="43.62251" lon="5.8948">
        <ele>464.3</ele>
        <time>2024-03-18T10:12:25Z</time>
      </trkpt>
      <trkpt lat="43.62258" lon="5.89487">
        <ele>464.6</ele>
        <time>2024-03-18T10:12:35Z</time>
      </trkpt>
      <trkpt lat="43.62266" lon="5.89495">
        <ele>464.3</ele>
        <time>2024-03-18T10:12:45Z</time>
      </trkpt>
      <trkpt lat="43.62274" lon="5.89502">
        <ele>464.3</ele>
        <time>2024-03-18T10:12:55Z</time>
      </trkpt>
      <trkpt lat="43.62283" lon="5.8951">
        <ele>464.2</ele>
        <time>2024-03-18T10:13:04Z</time>
      </trkpt>
      <trkpt lat="43.6229" lon="5.89517">
        <ele>464.3</ele>
        <time>2024-03-18T10:13:13Z</time>
      </trkpt>
      <trkpt lat="43.62298" lon="5.89525">
        <ele>464.2</ele>
        <time>2024-03-18T10:13:23Z</time>
      </trkpt>
      <trkpt lat="43.62306" lon="5.89532">
        <ele>463.3</ele>
        <time>2024-03-18T10:13:34Z</time>
      </trkpt>
      <trkpt lat="43.62314" lon="5.8954">
        <ele>464.3</ele>
        <time>2024-03-18T10:13:47Z</time>
      </trkpt>
      <trkpt lat="43.62323" lon="5.89546">
        <ele>464</ele>
        <time>2024-03-18T10:13:57Z</time>
      </trkpt>
      <trkpt lat="43.62331" lon="5.89553">
        <ele>463.9</ele>
        <time>2024-03-18T10:14:10Z</time>
      </trkpt>
      <trkpt lat="43.62339" lon="5.89559">
        <ele>463.9</ele>
        <time>2024-03-18T10:14:23Z</time>
      </trkpt>
      <trkpt lat="43.62347" lon="5.89566">
        <ele>463.6</ele>
        <time>2024-03-18T10:14:33Z</time>
      </trkpt>
      <trkpt lat="43.62355" lon="5.89573">
        <ele>463.5</ele>
        <time>2024-03-18T10:14:49Z</time>
      </trkpt>
      <trkpt lat="43.62363" lon="5.8958">
        <ele>463.8</ele>
        <time>2024-03-18T10:14:58Z</time>
      </trkpt>
      <trkpt lat="43.6237" lon="5.89587">
        <ele>463.6</ele>
        <time>2024-03-18T10:15:08Z</time>
      </trkpt>
      <trkpt lat="43.62376" lon="5.89596">
        <ele>464</ele>
        <time>2024-03-18T10:15:28Z</time>
      </trkpt>
      <trkpt lat="43.62384" lon="5.89603">
        <ele>464</ele>
        <time>2024-03-18T10:15:37Z</time>
      </trkpt>
      <trkpt lat="43.62392" lon="5.8961">
        <ele>464</ele>
        <time>2024-03-18T10:15:47Z</time>
      </trkpt>
      <trkpt lat="43.624" lon="5.89617">
        <ele>463.8</ele>
        <time>2024-03-18T10:15:58Z</time>
      </trkpt>
      <trkpt lat="43.62408" lon="5.89623">
        <ele>463.7</ele>
        <time>2024-03-18T10:16:08Z</time>
      </trkpt>
      <trkpt lat="43.62416" lon="5.89631">
        <ele>463.4</ele>
        <time>2024-03-18T10:16:18Z</time>
      </trkpt>
      <trkpt lat="43.62424" lon="5.89638">
        <ele>463.2</ele>
        <time>2024-03-18T10:16:29Z</time>
      </trkpt>
      <trkpt lat="43.62432" lon="5.89644">
        <ele>462.9</ele>
        <time>2024-03-18T10:16:39Z</time>
      </trkpt>
      <trkpt lat="43.62439" lon="5.89652">
        <ele>462.4</ele>
        <time>2024-03-18T10:16:49Z</time>
      </trkpt>
      <trkpt lat="43.62448" lon="5.8966">
        <ele>461.7</ele>
        <time>2024-03-18T10:17:07Z</time>
      </trkpt>
      <trkpt lat="43.62455" lon="5.89666">
        <ele>461.7</ele>
        <time>2024-03-18T10:17:16Z</time>
      </trkpt>
      <trkpt lat="43.62463" lon="5.89674">
        <ele>461.2</ele>
        <time>2024-03-18T10:17:25Z</time>
      </trkpt>
      <trkpt lat="43.62471" lon="5.8968">
        <ele>461.1</ele>
        <time>2024-03-18T10:17:36Z</time>
      </trkpt>
      <trkpt lat="43.6248" lon="5.89686">
        <ele>460.3</ele>
        <time>2024-03-18T10:17:47Z</time>
      </trkpt>
      <trkpt lat="43.62488" lon="5.89693">
        <ele>460.7</ele>
        <time>2024-03-18T10:17:55Z</time>
      </trkpt>
      <trkpt lat="43.62497" lon="5.89699">
        <ele>460.3</ele>
        <time>2024-03-18T10:18:05Z</time>
      </trkpt>
      <trkpt lat="43.62505" lon="5.89706">
        <ele>459.8</ele>
        <time>2024-03-18T10:18:22Z</time>
      </trkpt>
      <trkpt lat="43.62512" lon="5.89713">
        <ele>459.9</ele>
        <time>2024-03-18T10:18:32Z</time>
      </trkpt>
      <trkpt lat="43.6252" lon="5.89721">
        <ele>459.9</ele>
        <time>2024-03-18T10:18:45Z</time>
      </trkpt>
      <trkpt lat="43.62528" lon="5.8973">
        <ele>459.4</ele>
        <time>2024-03-18T10:18:55Z</time>
      </trkpt>
      <trkpt lat="43.62536" lon="5.89737">
        <ele>459.6</ele>
        <time>2024-03-18T10:19:05Z</time>
      </trkpt>
      <trkpt lat="43.62544" lon="5.89745">
        <ele>459</ele>
        <time>2024-03-18T10:19:15Z</time>
      </trkpt>
      <trkpt lat="43.62551" lon="5.89754">
        <ele>458.6</ele>
        <time>2024-03-18T10:19:25Z</time>
      </trkpt>
      <trkpt lat="43.62559" lon="5.89762">
        <ele>458.3</ele>
        <time>2024-03-18T10:19:38Z</time>
      </trkpt>
      <trkpt lat="43.62567" lon="5.8977">
        <ele>458.1</ele>
        <time>2024-03-18T10:19:47Z</time>
      </trkpt>
      <trkpt lat="43.62575" lon="5.89778">
        <ele>458.1</ele>
        <time>2024-03-18T10:19:56Z</time>
      </trkpt>
      <trkpt lat="43.62582" lon="5.89786">
        <ele>458.3</ele>
        <time>2024-03-18T10:20:05Z</time>
      </trkpt>
      <trkpt lat="43.6259" lon="5.89794">
        <ele>458.2</ele>
        <time>2024-03-18T10:20:18Z</time>
      </trkpt>
      <trkpt lat="43.62593" lon="5.89805">
        <ele>451.6</ele>
        <time>2024-03-18T10:23:04Z</time>
      </trkpt>
      <trkpt lat="43.62601" lon="5.89813">
        <ele>449.2</ele>
        <time>2024-03-18T10:24:05Z</time>
      </trkpt>
      <trkpt lat="43.62608" lon="5.89822">
        <ele>448.7</ele>
        <time>2024-03-18T10:24:15Z</time>
      </trkpt>
      <trkpt lat="43.62613" lon="5.89833">
        <ele>448.4</ele>
        <time>2024-03-18T10:24:25Z</time>
      </trkpt>
      <trkpt lat="43.62619" lon="5.89843">
        <ele>448.8</ele>
        <time>2024-03-18T10:24:39Z</time>
      </trkpt>
      <trkpt lat="43.62625" lon="5.89853">
        <ele>449</ele>
        <time>2024-03-18T10:24:54Z</time>
      </trkpt>
      <trkpt lat="43.6263" lon="5.89863">
        <ele>447.7</ele>
        <time>2024-03-18T10:25:12Z</time>
      </trkpt>
      <trkpt lat="43.62636" lon="5.89873">
        <ele>446.1</ele>
        <time>2024-03-18T10:25:55Z</time>
      </trkpt>
      <trkpt lat="43.62642" lon="5.89882">
        <ele>445</ele>
        <time>2024-03-18T10:26:26Z</time>
      </trkpt>
      <trkpt lat="43.62649" lon="5.89891">
        <ele>444.4</ele>
        <time>2024-03-18T10:26:38Z</time>
      </trkpt>
      <trkpt lat="43.62657" lon="5.89898">
        <ele>444</ele>
        <time>2024-03-18T10:26:47Z</time>
      </trkpt>
      <trkpt lat="43.62665" lon="5.89906">
        <ele>443</ele>
        <time>2024-03-18T10:26:59Z</time>
      </trkpt>
      <trkpt lat="43.62673" lon="5.89914">
        <ele>442.3</ele>
        <time>2024-03-18T10:27:08Z</time>
      </trkpt>
      <trkpt lat="43.62682" lon="5.8992">
        <ele>441.4</ele>
        <time>2024-03-18T10:27:18Z</time>
      </trkpt>
      <trkpt lat="43.62689" lon="5.89927">
        <ele>441.2</ele>
        <time>2024-03-18T10:27:28Z</time>
      </trkpt>
      <trkpt lat="43.62698" lon="5.89933">
        <ele>440.9</ele>
        <time>2024-03-18T10:27:37Z</time>
      </trkpt>
      <trkpt lat="43.62706" lon="5.8994">
        <ele>439.8</ele>
        <time>2024-03-18T10:27:46Z</time>
      </trkpt>
      <trkpt lat="43.62714" lon="5.89948">
        <ele>439.5</ele>
        <time>2024-03-18T10:27:56Z</time>
      </trkpt>
      <trkpt lat="43.62722" lon="5.89955">
        <ele>438.8</ele>
        <time>2024-03-18T10:28:06Z</time>
      </trkpt>
      <trkpt lat="43.6273" lon="5.89963">
        <ele>438.4</ele>
        <time>2024-03-18T10:28:16Z</time>
      </trkpt>
      <trkpt lat="43.62739" lon="5.89969">
        <ele>438.4</ele>
        <time>2024-03-18T10:28:25Z</time>
      </trkpt>
      <trkpt lat="43.62747" lon="5.89975">
        <ele>437.7</ele>
        <time>2024-03-18T10:28:36Z</time>
      </trkpt>
      <trkpt lat="43.62757" lon="5.89975">
        <ele>436.6</ele>
        <time>2024-03-18T10:28:47Z</time>
      </trkpt>
      <trkpt lat="43.62765" lon="5.89981">
        <ele>436.5</ele>
        <time>2024-03-18T10:29:01Z</time>
      </trkpt>
      <trkpt lat="43.62774" lon="5.89985">
        <ele>435.7</ele>
        <time>2024-03-18T10:29:17Z</time>
      </trkpt>
      <trkpt lat="43.62781" lon="5.89993">
        <ele>434.4</ele>
        <time>2024-03-18T10:29:35Z</time>
      </trkpt>
      <trkpt lat="43.6279" lon="5.89999">
        <ele>434.3</ele>
        <time>2024-03-18T10:29:46Z</time>
      </trkpt>
      <trkpt lat="43.62798" lon="5.90005">
        <ele>434</ele>
        <time>2024-03-18T10:29:56Z</time>
      </trkpt>
      <trkpt lat="43.62806" lon="5.90014">
        <ele>432.9</ele>
        <time>2024-03-18T10:30:20Z</time>
      </trkpt>
      <trkpt lat="43.62814" lon="5.9002">
        <ele>432</ele>
        <time>2024-03-18T10:30:27Z</time>
      </trkpt>
      <trkpt lat="43.62822" lon="5.90027">
        <ele>431.5</ele>
        <time>2024-03-18T10:30:36Z</time>
      </trkpt>
      <trkpt lat="43.6283" lon="5.90034">
        <ele>430.6</ele>
        <time>2024-03-18T10:30:45Z</time>
      </trkpt>
      <trkpt lat="43.62838" lon="5.90041">
        <ele>430.2</ele>
        <time>2024-03-18T10:30:54Z</time>
      </trkpt>
      <trkpt lat="43.62846" lon="5.90048">
        <ele>429.7</ele>
        <time>2024-03-18T10:31:05Z</time>
      </trkpt>
      <trkpt lat="43.62853" lon="5.90057">
        <ele>429.6</ele>
        <time>2024-03-18T10:31:15Z</time>
      </trkpt>
      <trkpt lat="43.6286" lon="5.90065">
        <ele>428.9</ele>
        <time>2024-03-18T10:31:25Z</time>
      </trkpt>
      <trkpt lat="43.62868" lon="5.90072">
        <ele>428.2</ele>
        <time>2024-03-18T10:31:34Z</time>
      </trkpt>
      <trkpt lat="43.62876" lon="5.9008">
        <ele>427.4</ele>
        <time>2024-03-18T10:31:43Z</time>
      </trkpt>
      <trkpt lat="43.62884" lon="5.90088">
        <ele>427</ele>
        <time>2024-03-18T10:31:52Z</time>
      </trkpt>
      <trkpt lat="43.62891" lon="5.90096">
        <ele>426.4</ele>
        <time>2024-03-18T10:32:02Z</time>
      </trkpt>
      <trkpt lat="43.62899" lon="5.90105">
        <ele>426.8</ele>
        <time>2024-03-18T10:32:11Z</time>
      </trkpt>
      <trkpt lat="43.62906" lon="5.90113">
        <ele>425.7</ele>
        <time>2024-03-18T10:32:20Z</time>
      </trkpt>
      <trkpt lat="43.62913" lon="5.90122">
        <ele>425</ele>
        <time>2024-03-18T10:32:29Z</time>
      </trkpt>
      <trkpt lat="43.62921" lon="5.9013">
        <ele>424.8</ele>
        <time>2024-03-18T10:32:38Z</time>
      </trkpt>
      <trkpt lat="43.62928" lon="5.90138">
        <ele>424.5</ele>
        <time>2024-03-18T10:32:48Z</time>
      </trkpt>
      <trkpt lat="43.62936" lon="5.90145">
        <ele>424.1</ele>
        <time>2024-03-18T10:32:57Z</time>
      </trkpt>
      <trkpt lat="43.62943" lon="5.90153">
        <ele>423.9</ele>
        <time>2024-03-18T10:33:06Z</time>
      </trkpt>
      <trkpt lat="43.6295" lon="5.90161">
        <ele>423.5</ele>
        <time>2024-03-18T10:33:16Z</time>
      </trkpt>
      <trkpt lat="43.62958" lon="5.90169">
        <ele>423</ele>
        <time>2024-03-18T10:33:26Z</time>
      </trkpt>
      <trkpt lat="43.62966" lon="5.90175">
        <ele>422.4</ele>
        <time>2024-03-18T10:33:39Z</time>
      </trkpt>
      <trkpt lat="43.62974" lon="5.90183">
        <ele>421.2</ele>
        <time>2024-03-18T10:33:49Z</time>
      </trkpt>
      <trkpt lat="43.62981" lon="5.90193">
        <ele>421.1</ele>
        <time>2024-03-18T10:34:00Z</time>
      </trkpt>
      <trkpt lat="43.62989" lon="5.90201">
        <ele>420.6</ele>
        <time>2024-03-18T10:34:09Z</time>
      </trkpt>
      <trkpt lat="43.62997" lon="5.9021">
        <ele>420.3</ele>
        <time>2024-03-18T10:34:20Z</time>
      </trkpt>
      <trkpt lat="43.63004" lon="5.9022">
        <ele>419.8</ele>
        <time>2024-03-18T10:34:30Z</time>
      </trkpt>
      <trkpt lat="43.63011" lon="5.90228">
        <ele>419.4</ele>
        <time>2024-03-18T10:34:38Z</time>
      </trkpt>
      <trkpt lat="43.63018" lon="5.90237">
        <ele>419.4</ele>
        <time>2024-03-18T10:34:46Z</time>
      </trkpt>
      <trkpt lat="43.63024" lon="5.90246">
        <ele>419.3</ele>
        <time>2024-03-18T10:34:55Z</time>
      </trkpt>
      <trkpt lat="43.6303" lon="5.90256">
        <ele>418.9</ele>
        <time>2024-03-18T10:35:06Z</time>
      </trkpt>
      <trkpt lat="43.63035" lon="5.90266">
        <ele>418.5</ele>
        <time>2024-03-18T10:35:14Z</time>
      </trkpt>
      <trkpt lat="43.63044" lon="5.9027">
        <ele>417.9</ele>
        <time>2024-03-18T10:35:37Z</time>
      </trkpt>
      <trkpt lat="43.63053" lon="5.90273">
        <ele>415.1</ele>
        <time>2024-03-18T10:36:47Z</time>
      </trkpt>
      <trkpt lat="43.63062" lon="5.90276">
        <ele>412.8</ele>
        <time>2024-03-18T10:38:01Z</time>
      </trkpt>
      <trkpt lat="43.6307" lon="5.90268">
        <ele>412.1</ele>
        <time>2024-03-18T10:38:35Z</time>
      </trkpt>
      <trkpt lat="43.63063" lon="5.90258">
        <ele>410.3</ele>
        <time>2024-03-18T10:39:35Z</time>
      </trkpt>
      <trkpt lat="43.63062" lon="5.90245">
        <ele>410</ele>
        <time>2024-03-18T10:39:47Z</time>
      </trkpt>
      <trkpt lat="43.63062" lon="5.90232">
        <ele>409.6</ele>
        <time>2024-03-18T10:39:59Z</time>
      </trkpt>
      <trkpt lat="43.63068" lon="5.90222">
        <ele>409.6</ele>
        <time>2024-03-18T10:40:09Z</time>
      </trkpt>
      <trkpt lat="43.63069" lon="5.90209">
        <ele>409.5</ele>
        <time>2024-03-18T10:40:20Z</time>
      </trkpt>
      <trkpt lat="43.63074" lon="5.90198">
        <ele>409.5</ele>
        <time>2024-03-18T10:40:30Z</time>
      </trkpt>
      <trkpt lat="43.63078" lon="5.90186">
        <ele>409.1</ele>
        <time>2024-03-18T10:40:39Z</time>
      </trkpt>
      <trkpt lat="43.63083" lon="5.90175">
        <ele>408.8</ele>
        <time>2024-03-18T10:40:48Z</time>
      </trkpt>
      <trkpt lat="43.63089" lon="5.90165">
        <ele>408.5</ele>
        <time>2024-03-18T10:40:57Z</time>
      </trkpt>
      <trkpt lat="43.63093" lon="5.90154">
        <ele>408.5</ele>
        <time>2024-03-18T10:41:04Z</time>
      </trkpt>
      <trkpt lat="43.63099" lon="5.90144">
        <ele>408.5</ele>
        <time>2024-03-18T10:41:12Z</time>
      </trkpt>
      <trkpt lat="43.63104" lon="5.90133">
        <ele>408.1</ele>
        <time>2024-03-18T10:41:22Z</time>
      </trkpt>
      <trkpt lat="43.63096" lon="5.90127">
        <ele>407.6</ele>
        <time>2024-03-18T10:41:32Z</time>
      </trkpt>
      <trkpt lat="43.631" lon="5.90116">
        <ele>406.1</ele>
        <time>2024-03-18T10:42:31Z</time>
      </trkpt>
      <trkpt lat="43.63101" lon="5.90102">
        <ele>405.7</ele>
        <time>2024-03-18T10:42:41Z</time>
      </trkpt>
      <trkpt lat="43.63104" lon="5.90089">
        <ele>405.1</ele>
        <time>2024-03-18T10:42:49Z</time>
      </trkpt>
      <trkpt lat="43.63103" lon="5.90076">
        <ele>404.6</ele>
        <time>2024-03-18T10:42:58Z</time>
      </trkpt>
      <trkpt lat="43.63103" lon="5.90062">
        <ele>403.7</ele>
        <time>2024-03-18T10:43:06Z</time>
      </trkpt>
      <trkpt lat="43.63105" lon="5.90048">
        <ele>403.1</ele>
        <time>2024-03-18T10:43:14Z</time>
      </trkpt>
      <trkpt lat="43.63104" lon="5.90035">
        <ele>402.8</ele>
        <time>2024-03-18T10:43:23Z</time>
      </trkpt>
      <trkpt lat="43.63107" lon="5.90022">
        <ele>403.1</ele>
        <time>2024-03-18T10:43:36Z</time>
      </trkpt>
      <trkpt lat="43.63105" lon="5.90009">
        <ele>403</ele>
        <time>2024-03-18T10:43:48Z</time>
      </trkpt>
      <trkpt lat="43.63104" lon="5.89996">
        <ele>400.6</ele>
        <time>2024-03-18T10:43:58Z</time>
      </trkpt>
      <trkpt lat="43.63107" lon="5.89983">
        <ele>401.7</ele>
        <time>2024-03-18T10:44:09Z</time>
      </trkpt>
      <trkpt lat="43.63113" lon="5.89972">
        <ele>402.8</ele>
        <time>2024-03-18T10:44:16Z</time>
      </trkpt>
      <trkpt lat="43.63117" lon="5.8996">
        <ele>402</ele>
        <time>2024-03-18T10:44:25Z</time>
      </trkpt>
      <trkpt lat="43.63119" lon="5.89947">
        <ele>401.7</ele>
        <time>2024-03-18T10:44:34Z</time>
      </trkpt>
      <trkpt lat="43.6312" lon="5.89935">
        <ele>401.2</ele>
        <time>2024-03-18T10:44:44Z</time>
      </trkpt>
      <trkpt lat="43.6312" lon="5.89922">
        <ele>400.9</ele>
        <time>2024-03-18T10:44:53Z</time>
      </trkpt>
      <trkpt lat="43.63121" lon="5.89909">
        <ele>400.8</ele>
        <time>2024-03-18T10:45:03Z</time>
      </trkpt>
      <trkpt lat="43.63121" lon="5.89897">
        <ele>400.3</ele>
        <time>2024-03-18T10:45:12Z</time>
      </trkpt>
      <trkpt lat="43.6312" lon="5.89884">
        <ele>399.8</ele>
        <time>2024-03-18T10:45:21Z</time>
      </trkpt>
      <trkpt lat="43.63119" lon="5.8987">
        <ele>399.2</ele>
        <time>2024-03-18T10:45:40Z</time>
      </trkpt>
      <trkpt lat="43.63118" lon="5.89857">
        <ele>399.3</ele>
        <time>2024-03-18T10:45:50Z</time>
      </trkpt>
      <trkpt lat="43.63117" lon="5.89844">
        <ele>399.3</ele>
        <time>2024-03-18T10:46:01Z</time>
      </trkpt>
      <trkpt lat="43.63114" lon="5.89832">
        <ele>399.6</ele>
        <time>2024-03-18T10:46:12Z</time>
      </trkpt>
      <trkpt lat="43.63111" lon="5.89819">
        <ele>399.6</ele>
        <time>2024-03-18T10:46:24Z</time>
      </trkpt>
      <trkpt lat="43.6311" lon="5.89807">
        <ele>399.8</ele>
        <time>2024-03-18T10:46:35Z</time>
      </trkpt>
      <trkpt lat="43.63108" lon="5.89794">
        <ele>399.7</ele>
        <time>2024-03-18T10:46:48Z</time>
      </trkpt>
      <trkpt lat="43.63106" lon="5.89782">
        <ele>399.9</ele>
        <time>2024-03-18T10:47:00Z</time>
      </trkpt>
      <trkpt lat="43.63099" lon="5.89773">
        <ele>400</ele>
        <time>2024-03-18T10:47:19Z</time>
      </trkpt>
      <trkpt lat="43.63098" lon="5.8976">
        <ele>399.6</ele>
        <time>2024-03-18T10:47:38Z</time>
      </trkpt>
      <trkpt lat="43.63098" lon="5.89747">
        <ele>400</ele>
        <time>2024-03-18T10:47:52Z</time>
      </trkpt>
      <trkpt lat="43.63096" lon="5.89734">
        <ele>400.2</ele>
        <time>2024-03-18T10:48:05Z</time>
      </trkpt>
      <trkpt lat="43.63092" lon="5.89723">
        <ele>400.8</ele>
        <time>2024-03-18T10:48:17Z</time>
      </trkpt>
      <trkpt lat="43.63086" lon="5.89713">
        <ele>401</ele>
        <time>2024-03-18T10:48:26Z</time>
      </trkpt>
      <trkpt lat="43.63083" lon="5.897">
        <ele>401</ele>
        <time>2024-03-18T10:48:36Z</time>
      </trkpt>
      <trkpt lat="43.6308" lon="5.89687">
        <ele>401.5</ele>
        <time>2024-03-18T10:48:50Z</time>
      </trkpt>
      <trkpt lat="43.63075" lon="5.89676">
        <ele>401.2</ele>
        <time>2024-03-18T10:49:00Z</time>
      </trkpt>
      <trkpt lat="43.63071" lon="5.89663">
        <ele>401.5</ele>
        <time>2024-03-18T10:49:10Z</time>
      </trkpt>
      <trkpt lat="43.63067" lon="5.89651">
        <ele>401.7</ele>
        <time>2024-03-18T10:49:25Z</time>
      </trkpt>
      <trkpt lat="43.63062" lon="5.8964">
        <ele>401.8</ele>
        <time>2024-03-18T10:49:38Z</time>
      </trkpt>
      <trkpt lat="43.63055" lon="5.89631">
        <ele>402.4</ele>
        <time>2024-03-18T10:49:51Z</time>
      </trkpt>
      <trkpt lat="43.6305" lon="5.89621">
        <ele>402.6</ele>
        <time>2024-03-18T10:50:03Z</time>
      </trkpt>
      <trkpt lat="43.63044" lon="5.89611">
        <ele>403.1</ele>
        <time>2024-03-18T10:50:17Z</time>
      </trkpt>
      <trkpt lat="43.63037" lon="5.89601">
        <ele>403.5</ele>
        <time>2024-03-18T10:50:28Z</time>
      </trkpt>
      <trkpt lat="43.63032" lon="5.89589">
        <ele>403.6</ele>
        <time>2024-03-18T10:50:40Z</time>
      </trkpt>
      <trkpt lat="43.63027" lon="5.89578">
        <ele>403.7</ele>
        <time>2024-03-18T10:50:54Z</time>
      </trkpt>
      <trkpt lat="43.63023" lon="5.89566">
        <ele>404</ele>
        <time>2024-03-18T10:51:07Z</time>
      </trkpt>
      <trkpt lat="43.63019" lon="5.89554">
        <ele>404.3</ele>
        <time>2024-03-18T10:51:19Z</time>
      </trkpt>
      <trkpt lat="43.63014" lon="5.89543">
        <ele>404.5</ele>
        <time>2024-03-18T10:51:30Z</time>
      </trkpt>
      <trkpt lat="43.63008" lon="5.89534">
        <ele>404.4</ele>
        <time>2024-03-18T10:51:42Z</time>
      </trkpt>
      <trkpt lat="43.63002" lon="5.89523">
        <ele>404.2</ele>
        <time>2024-03-18T10:52:00Z</time>
      </trkpt>
      <trkpt lat="43.62999" lon="5.89511">
        <ele>404.3</ele>
        <time>2024-03-18T10:52:13Z</time>
      </trkpt>
      <trkpt lat="43.62998" lon="5.89498">
        <ele>405.1</ele>
        <time>2024-03-18T10:52:43Z</time>
      </trkpt>
      <trkpt lat="43.62991" lon="5.8949">
        <ele>404.2</ele>
        <time>2024-03-18T10:53:13Z</time>
      </trkpt>
      <trkpt lat="43.62987" lon="5.89479">
        <ele>405.1</ele>
        <time>2024-03-18T10:53:23Z</time>
      </trkpt>
      <trkpt lat="43.6299" lon="5.89467">
        <ele>405.2</ele>
        <time>2024-03-18T10:53:31Z</time>
      </trkpt>
      <trkpt lat="43.62992" lon="5.89455">
        <ele>405.4</ele>
        <time>2024-03-18T10:53:41Z</time>
      </trkpt>
      <trkpt lat="43.62995" lon="5.89443">
        <ele>404.5</ele>
        <time>2024-03-18T10:53:50Z</time>
      </trkpt>
      <trkpt lat="43.62997" lon="5.89431">
        <ele>407.1</ele>
        <time>2024-03-18T10:53:58Z</time>
      </trkpt>
      <trkpt lat="43.63001" lon="5.89419">
        <ele>406.5</ele>
        <time>2024-03-18T10:54:09Z</time>
      </trkpt>
      <trkpt lat="43.63005" lon="5.89408">
        <ele>406.6</ele>
        <time>2024-03-18T10:54:20Z</time>
      </trkpt>
      <trkpt lat="43.63009" lon="5.89396">
        <ele>407.5</ele>
        <time>2024-03-18T10:54:31Z</time>
      </trkpt>
      <trkpt lat="43.63008" lon="5.89384">
        <ele>407</ele>
        <time>2024-03-18T10:54:44Z</time>
      </trkpt>
      <trkpt lat="43.63009" lon="5.89371">
        <ele>407.6</ele>
        <time>2024-03-18T10:54:57Z</time>
      </trkpt>
      <trkpt lat="43.63009" lon="5.89358">
        <ele>407.8</ele>
        <time>2024-03-18T10:55:08Z</time>
      </trkpt>
      <trkpt lat="43.6301" lon="5.89345">
        <ele>408.7</ele>
        <time>2024-03-18T10:55:20Z</time>
      </trkpt>
      <trkpt lat="43.63014" lon="5.89334">
        <ele>408.9</ele>
        <time>2024-03-18T10:55:32Z</time>
      </trkpt>
      <trkpt lat="43.63017" lon="5.89321">
        <ele>409.3</ele>
        <time>2024-03-18T10:55:41Z</time>
      </trkpt>
      <trkpt lat="43.63016" lon="5.89308">
        <ele>409.4</ele>
        <time>2024-03-18T10:55:53Z</time>
      </trkpt>
      <trkpt lat="43.63015" lon="5.89296">
        <ele>409.9</ele>
        <time>2024-03-18T10:56:04Z</time>
      </trkpt>
      <trkpt lat="43.63017" lon="5.89282">
        <ele>410.8</ele>
        <time>2024-03-18T10:56:18Z</time>
      </trkpt>
      <trkpt lat="43.6302" lon="5.89271">
        <ele>410.7</ele>
        <time>2024-03-18T10:56:28Z</time>
      </trkpt>
      <trkpt lat="43.63022" lon="5.89258">
        <ele>411.2</ele>
        <time>2024-03-18T10:56:40Z</time>
      </trkpt>
      <trkpt lat="43.63023" lon="5.89245">
        <ele>411.8</ele>
        <time>2024-03-18T10:56:50Z</time>
      </trkpt>
      <trkpt lat="43.63027" lon="5.89233">
        <ele>412.5</ele>
        <time>2024-03-18T10:57:01Z</time>
      </trkpt>
      <trkpt lat="43.6303" lon="5.89221">
        <ele>412.7</ele>
        <time>2024-03-18T10:57:12Z</time>
      </trkpt>
      <trkpt lat="43.63034" lon="5.89209">
        <ele>412.9</ele>
        <time>2024-03-18T10:57:22Z</time>
      </trkpt>
      <trkpt lat="43.63037" lon="5.89197">
        <ele>412.9</ele>
        <time>2024-03-18T10:57:34Z</time>
      </trkpt>
      <trkpt lat="43.63034" lon="5.89185">
        <ele>413.1</ele>
        <time>2024-03-18T10:57:45Z</time>
      </trkpt>
      <trkpt lat="43.63039" lon="5.89174">
        <ele>413.4</ele>
        <time>2024-03-18T10:57:57Z</time>
      </trkpt>
      <trkpt lat="43.63042" lon="5.89161">
        <ele>413.4</ele>
        <time>2024-03-18T10:58:07Z</time>
      </trkpt>
      <trkpt lat="43.63043" lon="5.89148">
        <ele>413.6</ele>
        <time>2024-03-18T10:58:17Z</time>
      </trkpt>
      <trkpt lat="43.63045" lon="5.89136">
        <ele>413.6</ele>
        <time>2024-03-18T10:58:28Z</time>
      </trkpt>
      <trkpt lat="43.63045" lon="5.89123">
        <ele>414</ele>
        <time>2024-03-18T10:58:37Z</time>
      </trkpt>
      <trkpt lat="43.63046" lon="5.89109">
        <ele>414.2</ele>
        <time>2024-03-18T10:58:47Z</time>
      </trkpt>
      <trkpt lat="43.63048" lon="5.89097">
        <ele>414.4</ele>
        <time>2024-03-18T10:58:56Z</time>
      </trkpt>
      <trkpt lat="43.63052" lon="5.89085">
        <ele>414.4</ele>
        <time>2024-03-18T10:59:06Z</time>
      </trkpt>
      <trkpt lat="43.63057" lon="5.89074">
        <ele>414.6</ele>
        <time>2024-03-18T10:59:20Z</time>
      </trkpt>
      <trkpt lat="43.63066" lon="5.8907">
        <ele>414.8</ele>
        <time>2024-03-18T10:59:44Z</time>
      </trkpt>
      <trkpt lat="43.63074" lon="5.89066">
        <ele>414.9</ele>
        <time>2024-03-18T11:00:00Z</time>
      </trkpt>
      <trkpt lat="43.63083" lon="5.89062">
        <ele>415.1</ele>
        <time>2024-03-18T11:00:16Z</time>
      </trkpt>
      <trkpt lat="43.63075" lon="5.89068">
        <ele>425.2</ele>
        <time>2024-03-18T12:02:46Z</time>
      </trkpt>
      <trkpt lat="43.63066" lon="5.89068">
        <ele>425.2</ele>
        <time>2024-03-18T12:03:00Z</time>
      </trkpt>
      <trkpt lat="43.63059" lon="5.89059">
        <ele>424.7</ele>
        <time>2024-03-18T12:03:46Z</time>
      </trkpt>
      <trkpt lat="43.6306" lon="5.89046">
        <ele>425.8</ele>
        <time>2024-03-18T12:04:06Z</time>
      </trkpt>
      <trkpt lat="43.63058" lon="5.89033">
        <ele>426.7</ele>
        <time>2024-03-18T12:04:17Z</time>
      </trkpt>
      <trkpt lat="43.63056" lon="5.89021">
        <ele>426.5</ele>
        <time>2024-03-18T12:04:27Z</time>
      </trkpt>
      <trkpt lat="43.63055" lon="5.89008">
        <ele>426.6</ele>
        <time>2024-03-18T12:04:54Z</time>
      </trkpt>
      <trkpt lat="43.63052" lon="5.88994">
        <ele>426.7</ele>
        <time>2024-03-18T12:05:06Z</time>
      </trkpt>
      <trkpt lat="43.63049" lon="5.88982">
        <ele>427.1</ele>
        <time>2024-03-18T12:05:43Z</time>
      </trkpt>
      <trkpt lat="43.63045" lon="5.8897">
        <ele>427.4</ele>
        <time>2024-03-18T12:05:54Z</time>
      </trkpt>
      <trkpt lat="43.6304" lon="5.88958">
        <ele>427.8</ele>
        <time>2024-03-18T12:06:11Z</time>
      </trkpt>
      <trkpt lat="43.63035" lon="5.88947">
        <ele>428.4</ele>
        <time>2024-03-18T12:06:21Z</time>
      </trkpt>
      <trkpt lat="43.63032" lon="5.88935">
        <ele>428.7</ele>
        <time>2024-03-18T12:06:32Z</time>
      </trkpt>
      <trkpt lat="43.63029" lon="5.88924">
        <ele>429.2</ele>
        <time>2024-03-18T12:06:43Z</time>
      </trkpt>
      <trkpt lat="43.63023" lon="5.88912">
        <ele>429.1</ele>
        <time>2024-03-18T12:06:55Z</time>
      </trkpt>
      <trkpt lat="43.63018" lon="5.889">
        <ele>430.2</ele>
        <time>2024-03-18T12:07:05Z</time>
      </trkpt>
      <trkpt lat="43.63015" lon="5.88888">
        <ele>430.4</ele>
        <time>2024-03-18T12:07:18Z</time>
      </trkpt>
      <trkpt lat="43.63015" lon="5.88876">
        <ele>430.8</ele>
        <time>2024-03-18T12:07:33Z</time>
      </trkpt>
      <trkpt lat="43.63017" lon="5.88863">
        <ele>430.8</ele>
        <time>2024-03-18T12:07:42Z</time>
      </trkpt>
      <trkpt lat="43.63019" lon="5.8885">
        <ele>430.6</ele>
        <time>2024-03-18T12:07:52Z</time>
      </trkpt>
      <trkpt lat="43.63017" lon="5.88838">
        <ele>431</ele>
        <time>2024-03-18T12:08:02Z</time>
      </trkpt>
      <trkpt lat="43.63011" lon="5.88829">
        <ele>431.7</ele>
        <time>2024-03-18T12:08:11Z</time>
      </trkpt>
      <trkpt lat="43.63006" lon="5.88818">
        <ele>431.9</ele>
        <time>2024-03-18T12:08:21Z</time>
      </trkpt>
      <trkpt lat="43.63007" lon="5.88805">
        <ele>432.5</ele>
        <time>2024-03-18T12:08:33Z</time>
      </trkpt>
      <trkpt lat="43.63004" lon="5.88792">
        <ele>433.3</ele>
        <time>2024-03-18T12:08:47Z</time>
      </trkpt>
      <trkpt lat="43.63001" lon="5.88779">
        <ele>433.7</ele>
        <time>2024-03-18T12:08:57Z</time>
      </trkpt>
      <trkpt lat="43.63" lon="5.88766">
        <ele>433.8</ele>
        <time>2024-03-18T12:09:07Z</time>
      </trkpt>
      <trkpt lat="43.63" lon="5.88753">
        <ele>433.9</ele>
        <time>2024-03-18T12:09:17Z</time>
      </trkpt>
      <trkpt lat="43.63001" lon="5.8874">
        <ele>434.4</ele>
        <time>2024-03-18T12:09:27Z</time>
      </trkpt>
      <trkpt lat="43.63002" lon="5.88727">
        <ele>434.8</ele>
        <time>2024-03-18T12:09:42Z</time>
      </trkpt>
      <trkpt lat="43.63005" lon="5.88716">
        <ele>435.1</ele>
        <time>2024-03-18T12:09:52Z</time>
      </trkpt>
      <trkpt lat="43.63009" lon="5.88704">
        <ele>435.7</ele>
        <time>2024-03-18T12:10:03Z</time>
      </trkpt>
      <trkpt lat="43.63011" lon="5.88691">
        <ele>435.9</ele>
        <time>2024-03-18T12:10:13Z</time>
      </trkpt>
      <trkpt lat="43.63015" lon="5.88679">
        <ele>436.4</ele>
        <time>2024-03-18T12:10:23Z</time>
      </trkpt>
      <trkpt lat="43.63021" lon="5.88668">
        <ele>436.4</ele>
        <time>2024-03-18T12:10:34Z</time>
      </trkpt>
      <trkpt lat="43.63028" lon="5.88659">
        <ele>436.5</ele>
        <time>2024-03-18T12:10:46Z</time>
      </trkpt>
      <trkpt lat="43.63034" lon="5.8865">
        <ele>437.2</ele>
        <time>2024-03-18T12:10:56Z</time>
      </trkpt>
      <trkpt lat="43.63041" lon="5.88641">
        <ele>437.9</ele>
        <time>2024-03-18T12:11:06Z</time>
      </trkpt>
      <trkpt lat="43.63046" lon="5.88631">
        <ele>438.2</ele>
        <time>2024-03-18T12:11:16Z</time>
      </trkpt>
      <trkpt lat="43.63053" lon="5.88622">
        <ele>438.2</ele>
        <time>2024-03-18T12:11:26Z</time>
      </trkpt>
      <trkpt lat="43.63059" lon="5.88612">
        <ele>438.8</ele>
        <time>2024-03-18T12:11:36Z</time>
      </trkpt>
      <trkpt lat="43.63063" lon="5.886">
        <ele>439.2</ele>
        <time>2024-03-18T12:11:47Z</time>
      </trkpt>
      <trkpt lat="43.63063" lon="5.88586">
        <ele>439.4</ele>
        <time>2024-03-18T12:11:58Z</time>
      </trkpt>
      <trkpt lat="43.63057" lon="5.88576">
        <ele>439.5</ele>
        <time>2024-03-18T12:12:07Z</time>
      </trkpt>
      <trkpt lat="43.63051" lon="5.88566">
        <ele>439.5</ele>
        <time>2024-03-18T12:12:18Z</time>
      </trkpt>
      <trkpt lat="43.63046" lon="5.88556">
        <ele>439.3</ele>
        <time>2024-03-18T12:12:28Z</time>
      </trkpt>
      <trkpt lat="43.6304" lon="5.88546">
        <ele>439.2</ele>
        <time>2024-03-18T12:12:38Z</time>
      </trkpt>
      <trkpt lat="43.63031" lon="5.8854">
        <ele>438.9</ele>
        <time>2024-03-18T12:12:49Z</time>
      </trkpt>
      <trkpt lat="43.63022" lon="5.88541">
        <ele>438.8</ele>
        <time>2024-03-18T12:13:01Z</time>
      </trkpt>
      <trkpt lat="43.63013" lon="5.88544">
        <ele>439.1</ele>
        <time>2024-03-18T12:13:10Z</time>
      </trkpt>
      <trkpt lat="43.63005" lon="5.88552">
        <ele>438.6</ele>
        <time>2024-03-18T12:13:20Z</time>
      </trkpt>
      <trkpt lat="43.62998" lon="5.88561">
        <ele>438</ele>
        <time>2024-03-18T12:13:31Z</time>
      </trkpt>
      <trkpt lat="43.6299" lon="5.88567">
        <ele>437.7</ele>
        <time>2024-03-18T12:13:42Z</time>
      </trkpt>
      <trkpt lat="43.6298" lon="5.88569">
        <ele>438</ele>
        <time>2024-03-18T12:13:52Z</time>
      </trkpt>
      <trkpt lat="43.62971" lon="5.88566">
        <ele>438.4</ele>
        <time>2024-03-18T12:14:02Z</time>
      </trkpt>
      <trkpt lat="43.62962" lon="5.88567">
        <ele>438.3</ele>
        <time>2024-03-18T12:14:12Z</time>
      </trkpt>
      <trkpt lat="43.62952" lon="5.88565">
        <ele>438.5</ele>
        <time>2024-03-18T12:14:23Z</time>
      </trkpt>
      <trkpt lat="43.62943" lon="5.88565">
        <ele>438.5</ele>
        <time>2024-03-18T12:14:34Z</time>
      </trkpt>
      <trkpt lat="43.62934" lon="5.88567">
        <ele>438.6</ele>
        <time>2024-03-18T12:14:45Z</time>
      </trkpt>
      <trkpt lat="43.62924" lon="5.88566">
        <ele>438.7</ele>
        <time>2024-03-18T12:14:57Z</time>
      </trkpt>
      <trkpt lat="43.62914" lon="5.88566">
        <ele>438.6</ele>
        <time>2024-03-18T12:15:07Z</time>
      </trkpt>
      <trkpt lat="43.62905" lon="5.88565">
        <ele>438.8</ele>
        <time>2024-03-18T12:15:18Z</time>
      </trkpt>
      <trkpt lat="43.62895" lon="5.88565">
        <ele>439</ele>
        <time>2024-03-18T12:15:30Z</time>
      </trkpt>
      <trkpt lat="43.62886" lon="5.88559">
        <ele>439</ele>
        <time>2024-03-18T12:15:40Z</time>
      </trkpt>
      <trkpt lat="43.62879" lon="5.8855">
        <ele>438.5</ele>
        <time>2024-03-18T12:15:52Z</time>
      </trkpt>
      <trkpt lat="43.62872" lon="5.88542">
        <ele>438.2</ele>
        <time>2024-03-18T12:16:02Z</time>
      </trkpt>
      <trkpt lat="43.62864" lon="5.88533">
        <ele>437.9</ele>
        <time>2024-03-18T12:16:12Z</time>
      </trkpt>
      <trkpt lat="43.62858" lon="5.88525">
        <ele>437.4</ele>
        <time>2024-03-18T12:16:24Z</time>
      </trkpt>
      <trkpt lat="43.6285" lon="5.88518">
        <ele>436.9</ele>
        <time>2024-03-18T12:16:35Z</time>
      </trkpt>
      <trkpt lat="43.62843" lon="5.88509">
        <ele>436</ele>
        <time>2024-03-18T12:16:47Z</time>
      </trkpt>
      <trkpt lat="43.62837" lon="5.885">
        <ele>435.6</ele>
        <time>2024-03-18T12:17:00Z</time>
      </trkpt>
      <trkpt lat="43.62829" lon="5.88492">
        <ele>434.5</ele>
        <time>2024-03-18T12:17:12Z</time>
      </trkpt>
      <trkpt lat="43.62821" lon="5.88485">
        <ele>433.6</ele>
        <time>2024-03-18T12:17:23Z</time>
      </trkpt>
      <trkpt lat="43.62816" lon="5.88475">
        <ele>432.9</ele>
        <time>2024-03-18T12:17:33Z</time>
      </trkpt>
      <trkpt lat="43.62808" lon="5.88466">
        <ele>432.1</ele>
        <time>2024-03-18T12:17:45Z</time>
      </trkpt>
      <trkpt lat="43.62801" lon="5.88457">
        <ele>431.5</ele>
        <time>2024-03-18T12:17:55Z</time>
      </trkpt>
      <trkpt lat="43.62794" lon="5.88449">
        <ele>430.5</ele>
        <time>2024-03-18T12:18:05Z</time>
      </trkpt>
      <trkpt lat="43.62786" lon="5.88442">
        <ele>429.6</ele>
        <time>2024-03-18T12:18:18Z</time>
      </trkpt>
      <trkpt lat="43.6278" lon="5.88432">
        <ele>428.4</ele>
        <time>2024-03-18T12:18:29Z</time>
      </trkpt>
      <trkpt lat="43.62774" lon="5.88422">
        <ele>426.9</ele>
        <time>2024-03-18T12:18:43Z</time>
      </trkpt>
      <trkpt lat="43.62767" lon="5.88414">
        <ele>425.5</ele>
        <time>2024-03-18T12:18:56Z</time>
      </trkpt>
      <trkpt lat="43.62759" lon="5.88408">
        <ele>425</ele>
        <time>2024-03-18T12:19:10Z</time>
      </trkpt>
      <trkpt lat="43.62751" lon="5.88401">
        <ele>423.6</ele>
        <time>2024-03-18T12:19:39Z</time>
      </trkpt>
      <trkpt lat="43.62745" lon="5.88392">
        <ele>422.3</ele>
        <time>2024-03-18T12:20:06Z</time>
      </trkpt>
      <trkpt lat="43.62738" lon="5.88383">
        <ele>420.9</ele>
        <time>2024-03-18T12:20:23Z</time>
      </trkpt>
      <trkpt lat="43.62733" lon="5.88373">
        <ele>419.6</ele>
        <time>2024-03-18T12:20:50Z</time>
      </trkpt>
      <trkpt lat="43.62726" lon="5.88364">
        <ele>418.3</ele>
        <time>2024-03-18T12:21:09Z</time>
      </trkpt>
      <trkpt lat="43.62717" lon="5.88358">
        <ele>415.8</ele>
        <time>2024-03-18T12:22:03Z</time>
      </trkpt>
      <trkpt lat="43.6271" lon="5.8835">
        <ele>413.3</ele>
        <time>2024-03-18T12:22:44Z</time>
      </trkpt>
      <trkpt lat="43.62703" lon="5.88342">
        <ele>411.6</ele>
        <time>2024-03-18T12:23:02Z</time>
      </trkpt>
      <trkpt lat="43.62701" lon="5.8833">
        <ele>410</ele>
        <time>2024-03-18T12:23:25Z</time>
      </trkpt>
      <trkpt lat="43.62702" lon="5.88317">
        <ele>409.5</ele>
        <time>2024-03-18T12:23:37Z</time>
      </trkpt>
      <trkpt lat="43.62698" lon="5.88304">
        <ele>409</ele>
        <time>2024-03-18T12:23:47Z</time>
      </trkpt>
      <trkpt lat="43.62691" lon="5.88294">
        <ele>409</ele>
        <time>2024-03-18T12:23:58Z</time>
      </trkpt>
      <trkpt lat="43.62684" lon="5.88287">
        <ele>408.9</ele>
        <time>2024-03-18T12:24:08Z</time>
      </trkpt>
      <trkpt lat="43.62676" lon="5.88279">
        <ele>408.3</ele>
        <time>2024-03-18T12:24:25Z</time>
      </trkpt>
      <trkpt lat="43.62673" lon="5.88267">
        <ele>408.1</ele>
        <time>2024-03-18T12:24:38Z</time>
      </trkpt>
      <trkpt lat="43.6267" lon="5.88255">
        <ele>407.6</ele>
        <time>2024-03-18T12:24:52Z</time>
      </trkpt>
      <trkpt lat="43.62662" lon="5.88248">
        <ele>406.8</ele>
        <time>2024-03-18T12:25:05Z</time>
      </trkpt>
      <trkpt lat="43.62656" lon="5.88239">
        <ele>405.2</ele>
        <time>2024-03-18T12:25:18Z</time>
      </trkpt>
      <trkpt lat="43.6265" lon="5.88229">
        <ele>403.2</ele>
        <time>2024-03-18T12:25:42Z</time>
      </trkpt>
      <trkpt lat="43.62646" lon="5.88217">
        <ele>402</ele>
        <time>2024-03-18T12:25:56Z</time>
      </trkpt>
      <trkpt lat="43.62643" lon="5.88205">
        <ele>400</ele>
        <time>2024-03-18T12:26:09Z</time>
      </trkpt>
      <trkpt lat="43.62639" lon="5.88193">
        <ele>398.1</ele>
        <time>2024-03-18T12:26:23Z</time>
      </trkpt>
      <trkpt lat="43.62633" lon="5.88184">
        <ele>396.5</ele>
        <time>2024-03-18T12:26:43Z</time>
      </trkpt>
      <trkpt lat="43.62625" lon="5.88177">
        <ele>395.4</ele>
        <time>2024-03-18T12:26:56Z</time>
      </trkpt>
      <trkpt lat="43.62616" lon="5.8818">
        <ele>394.9</ele>
        <time>2024-03-18T12:27:08Z</time>
      </trkpt>
      <trkpt lat="43.62608" lon="5.88174">
        <ele>394</ele>
        <time>2024-03-18T12:29:46Z</time>
      </trkpt>
      <trkpt lat="43.62598" lon="5.88175">
        <ele>393.2</ele>
        <time>2024-03-18T12:30:02Z</time>
      </trkpt>
      <trkpt lat="43.62589" lon="5.88176">
        <ele>392.3</ele>
        <time>2024-03-18T12:30:17Z</time>
      </trkpt>
      <trkpt lat="43.62579" lon="5.88176">
        <ele>391.6</ele>
        <time>2024-03-18T12:30:30Z</time>
      </trkpt>
      <trkpt lat="43.6257" lon="5.88176">
        <ele>391.2</ele>
        <time>2024-03-18T12:30:41Z</time>
      </trkpt>
      <trkpt lat="43.62562" lon="5.88169">
        <ele>390.4</ele>
        <time>2024-03-18T12:30:55Z</time>
      </trkpt>
      <trkpt lat="43.62558" lon="5.88158">
        <ele>389.3</ele>
        <time>2024-03-18T12:31:17Z</time>
      </trkpt>
      <trkpt lat="43.62549" lon="5.88155">
        <ele>388.5</ele>
        <time>2024-03-18T12:31:44Z</time>
      </trkpt>
      <trkpt lat="43.62539" lon="5.88156">
        <ele>388.3</ele>
        <time>2024-03-18T12:31:55Z</time>
      </trkpt>
      <trkpt lat="43.6253" lon="5.88157">
        <ele>387.4</ele>
        <time>2024-03-18T12:32:08Z</time>
      </trkpt>
      <trkpt lat="43.62521" lon="5.88155">
        <ele>386.6</ele>
        <time>2024-03-18T12:32:19Z</time>
      </trkpt>
      <trkpt lat="43.62511" lon="5.88152">
        <ele>386.4</ele>
        <time>2024-03-18T12:32:34Z</time>
      </trkpt>
      <trkpt lat="43.62502" lon="5.88149">
        <ele>385.5</ele>
        <time>2024-03-18T12:32:45Z</time>
      </trkpt>
      <trkpt lat="43.62493" lon="5.88149">
        <ele>385</ele>
        <time>2024-03-18T12:32:55Z</time>
      </trkpt>
      <trkpt lat="43.62483" lon="5.88148">
        <ele>384.6</ele>
        <time>2024-03-18T12:33:07Z</time>
      </trkpt>
      <trkpt lat="43.62474" lon="5.88148">
        <ele>384.1</ele>
        <time>2024-03-18T12:33:16Z</time>
      </trkpt>
      <trkpt lat="43.62464" lon="5.88146">
        <ele>383.3</ele>
        <time>2024-03-18T12:33:27Z</time>
      </trkpt>
      <trkpt lat="43.62455" lon="5.88144">
        <ele>382.6</ele>
        <time>2024-03-18T12:33:38Z</time>
      </trkpt>
      <trkpt lat="43.62446" lon="5.88144">
        <ele>382.4</ele>
        <time>2024-03-18T12:33:49Z</time>
      </trkpt>
      <trkpt lat="43.62436" lon="5.88146">
        <ele>381</ele>
        <time>2024-03-18T12:34:06Z</time>
      </trkpt>
      <trkpt lat="43.62429" lon="5.88138">
        <ele>381.4</ele>
        <time>2024-03-18T12:34:28Z</time>
      </trkpt>
      <trkpt lat="43.62427" lon="5.88125">
        <ele>380.5</ele>
        <time>2024-03-18T12:34:38Z</time>
      </trkpt>
      <trkpt lat="43.62426" lon="5.88112">
        <ele>380.3</ele>
        <time>2024-03-18T12:34:48Z</time>
      </trkpt>
      <trkpt lat="43.62427" lon="5.88099">
        <ele>379.7</ele>
        <time>2024-03-18T12:35:02Z</time>
      </trkpt>
      <trkpt lat="43.62428" lon="5.88086">
        <ele>379</ele>
        <time>2024-03-18T12:35:21Z</time>
      </trkpt>
      <trkpt lat="43.62419" lon="5.88082">
        <ele>378.5</ele>
        <time>2024-03-18T12:35:52Z</time>
      </trkpt>
      <trkpt lat="43.6241" lon="5.88083">
        <ele>378</ele>
        <time>2024-03-18T12:36:19Z</time>
      </trkpt>
      <trkpt lat="43.62408" lon="5.88095">
        <ele>377.6</ele>
        <time>2024-03-18T12:36:40Z</time>
      </trkpt>
      <trkpt lat="43.62402" lon="5.88107">
        <ele>377.7</ele>
        <time>2024-03-18T12:36:51Z</time>
      </trkpt>
      <trkpt lat="43.62397" lon="5.88117">
        <ele>376.6</ele>
        <time>2024-03-18T12:37:02Z</time>
      </trkpt>
      <trkpt lat="43.6239" lon="5.88128">
        <ele>376.1</ele>
        <time>2024-03-18T12:37:10Z</time>
      </trkpt>
      <trkpt lat="43.62381" lon="5.88133">
        <ele>375.4</ele>
        <time>2024-03-18T12:37:19Z</time>
      </trkpt>
      <trkpt lat="43.62374" lon="5.8814">
        <ele>374.8</ele>
        <time>2024-03-18T12:37:28Z</time>
      </trkpt>
      <trkpt lat="43.62366" lon="5.88147">
        <ele>374</ele>
        <time>2024-03-18T12:37:43Z</time>
      </trkpt>
      <trkpt lat="43.62356" lon="5.88146">
        <ele>373.2</ele>
        <time>2024-03-18T12:37:58Z</time>
      </trkpt>
      <trkpt lat="43.62347" lon="5.88147">
        <ele>373</ele>
        <time>2024-03-18T12:38:08Z</time>
      </trkpt>
      <trkpt lat="43.62339" lon="5.88139">
        <ele>372</ele>
        <time>2024-03-18T12:38:24Z</time>
      </trkpt>
      <trkpt lat="43.62332" lon="5.88131">
        <ele>372.1</ele>
        <time>2024-03-18T12:38:38Z</time>
      </trkpt>
      <trkpt lat="43.62323" lon="5.88127">
        <ele>373.2</ele>
        <time>2024-03-18T12:38:50Z</time>
      </trkpt>
      <trkpt lat="43.62317" lon="5.88117">
        <ele>374.3</ele>
        <time>2024-03-18T12:39:02Z</time>
      </trkpt>
      <trkpt lat="43.62314" lon="5.88105">
        <ele>374.8</ele>
        <time>2024-03-18T12:39:13Z</time>
      </trkpt>
      <trkpt lat="43.6231" lon="5.88094">
        <ele>375.3</ele>
        <time>2024-03-18T12:39:24Z</time>
      </trkpt>
      <trkpt lat="43.62308" lon="5.88081">
        <ele>375.6</ele>
        <time>2024-03-18T12:39:33Z</time>
      </trkpt>
      <trkpt lat="43.62311" lon="5.88069">
        <ele>375.7</ele>
        <time>2024-03-18T12:39:43Z</time>
      </trkpt>
      <trkpt lat="43.62308" lon="5.88057">
        <ele>375.9</ele>
        <time>2024-03-18T12:39:52Z</time>
      </trkpt>
      <trkpt lat="43.62308" lon="5.88043">
        <ele>375.9</ele>
        <time>2024-03-18T12:40:02Z</time>
      </trkpt>
      <trkpt lat="43.62306" lon="5.8803">
        <ele>375.7</ele>
        <time>2024-03-18T12:40:12Z</time>
      </trkpt>
      <trkpt lat="43.62307" lon="5.88017">
        <ele>375.2</ele>
        <time>2024-03-18T12:40:24Z</time>
      </trkpt>
      <trkpt lat="43.62307" lon="5.88004">
        <ele>374.8</ele>
        <time>2024-03-18T12:40:36Z</time>
      </trkpt>
      <trkpt lat="43.62307" lon="5.8799">
        <ele>374.4</ele>
        <time>2024-03-18T12:40:47Z</time>
      </trkpt>
      <trkpt lat="43.62308" lon="5.87977">
        <ele>374.1</ele>
        <time>2024-03-18T12:40:56Z</time>
      </trkpt>
      <trkpt lat="43.6231" lon="5.87964">
        <ele>373.6</ele>
        <time>2024-03-18T12:41:06Z</time>
      </trkpt>
      <trkpt lat="43.62313" lon="5.87952">
        <ele>373.4</ele>
        <time>2024-03-18T12:41:16Z</time>
      </trkpt>
      <trkpt lat="43.62318" lon="5.8794">
        <ele>373.1</ele>
        <time>2024-03-18T12:41:26Z</time>
      </trkpt>
      <trkpt lat="43.62323" lon="5.87929">
        <ele>372.7</ele>
        <time>2024-03-18T12:41:35Z</time>
      </trkpt>
      <trkpt lat="43.62325" lon="5.87916">
        <ele>371.8</ele>
        <time>2024-03-18T12:41:47Z</time>
      </trkpt>
      <trkpt lat="43.62326" lon="5.87904">
        <ele>371.3</ele>
        <time>2024-03-18T12:41:58Z</time>
      </trkpt>
      <trkpt lat="43.62326" lon="5.8789">
        <ele>370.6</ele>
        <time>2024-03-18T12:42:10Z</time>
      </trkpt>
      <trkpt lat="43.62328" lon="5.87878">
        <ele>369.7</ele>
        <time>2024-03-18T12:42:22Z</time>
      </trkpt>
      <trkpt lat="43.62326" lon="5.87865">
        <ele>368.5</ele>
        <time>2024-03-18T12:42:41Z</time>
      </trkpt>
      <trkpt lat="43.62322" lon="5.87853">
        <ele>367.4</ele>
        <time>2024-03-18T12:43:00Z</time>
      </trkpt>
      <trkpt lat="43.62318" lon="5.87842">
        <ele>366.5</ele>
        <time>2024-03-18T12:43:15Z</time>
      </trkpt>
      <trkpt lat="43.62311" lon="5.87833">
        <ele>365.6</ele>
        <time>2024-03-18T12:43:27Z</time>
      </trkpt>
      <trkpt lat="43.62304" lon="5.87824">
        <ele>365.1</ele>
        <time>2024-03-18T12:43:49Z</time>
      </trkpt>
      <trkpt lat="43.62295" lon="5.87818">
        <ele>364.8</ele>
        <time>2024-03-18T12:44:02Z</time>
      </trkpt>
      <trkpt lat="43.62286" lon="5.87815">
        <ele>364.4</ele>
        <time>2024-03-18T12:44:13Z</time>
      </trkpt>
      <trkpt lat="43.62277" lon="5.87817">
        <ele>364</ele>
        <time>2024-03-18T12:44:24Z</time>
      </trkpt>
      <trkpt lat="43.62268" lon="5.87821">
        <ele>363.6</ele>
        <time>2024-03-18T12:44:36Z</time>
      </trkpt>
      <trkpt lat="43.62258" lon="5.87826">
        <ele>363.4</ele>
        <time>2024-03-18T12:44:46Z</time>
      </trkpt>
      <trkpt lat="43.62249" lon="5.87827">
        <ele>363.2</ele>
        <time>2024-03-18T12:44:57Z</time>
      </trkpt>
      <trkpt lat="43.6224" lon="5.87831">
        <ele>362.7</ele>
        <time>2024-03-18T12:45:07Z</time>
      </trkpt>
      <trkpt lat="43.62232" lon="5.87837">
        <ele>362.3</ele>
        <time>2024-03-18T12:45:17Z</time>
      </trkpt>
      <trkpt lat="43.62224" lon="5.87846">
        <ele>362.2</ele>
        <time>2024-03-18T12:45:34Z</time>
      </trkpt>
      <trkpt lat="43.62215" lon="5.87848">
        <ele>361.3</ele>
        <time>2024-03-18T12:45:55Z</time>
      </trkpt>
      <trkpt lat="43.62206" lon="5.8785">
        <ele>360.4</ele>
        <time>2024-03-18T12:46:09Z</time>
      </trkpt>
      <trkpt lat="43.62197" lon="5.87853">
        <ele>360.2</ele>
        <time>2024-03-18T12:46:21Z</time>
      </trkpt>
      <trkpt lat="43.62187" lon="5.87857">
        <ele>359.6</ele>
        <time>2024-03-18T12:46:34Z</time>
      </trkpt>
      <trkpt lat="43.62177" lon="5.87856">
        <ele>359</ele>
        <time>2024-03-18T12:46:44Z</time>
      </trkpt>
      <trkpt lat="43.62168" lon="5.87851">
        <ele>358.9</ele>
        <time>2024-03-18T12:46:54Z</time>
      </trkpt>
      <trkpt lat="43.6216" lon="5.87848">
        <ele>359.4</ele>
        <time>2024-03-18T12:47:08Z</time>
      </trkpt>
      <trkpt lat="43.62154" lon="5.87837">
        <ele>359.4</ele>
        <time>2024-03-18T12:47:30Z</time>
      </trkpt>
      <trkpt lat="43.62147" lon="5.87828">
        <ele>359.2</ele>
        <time>2024-03-18T12:47:40Z</time>
      </trkpt>
      <trkpt lat="43.62139" lon="5.87822">
        <ele>358.9</ele>
        <time>2024-03-18T12:47:52Z</time>
      </trkpt>
      <trkpt lat="43.62131" lon="5.87815">
        <ele>358.8</ele>
        <time>2024-03-18T12:48:04Z</time>
      </trkpt>
      <trkpt lat="43.62125" lon="5.87806">
        <ele>358.7</ele>
        <time>2024-03-18T12:48:16Z</time>
      </trkpt>
      <trkpt lat="43.62118" lon="5.87798">
        <ele>358.6</ele>
        <time>2024-03-18T12:48:25Z</time>
      </trkpt>
      <trkpt lat="43.62113" lon="5.87787">
        <ele>358.7</ele>
        <time>2024-03-18T12:48:35Z</time>
      </trkpt>
      <trkpt lat="43.6211" lon="5.87775">
        <ele>358.8</ele>
        <time>2024-03-18T12:48:46Z</time>
      </trkpt>
      <trkpt lat="43.62107" lon="5.87763">
        <ele>358.1</ele>
        <time>2024-03-18T12:49:08Z</time>
      </trkpt>
      <trkpt lat="43.62109" lon="5.8775">
        <ele>358</ele>
        <time>2024-03-18T12:49:17Z</time>
      </trkpt>
      <trkpt lat="43.62112" lon="5.87738">
        <ele>357.8</ele>
        <time>2024-03-18T12:49:25Z</time>
      </trkpt>
      <trkpt lat="43.62119" lon="5.87731">
        <ele>357.4</ele>
        <time>2024-03-18T12:49:35Z</time>
      </trkpt>
      <trkpt lat="43.62123" lon="5.87719">
        <ele>357.2</ele>
        <time>2024-03-18T12:49:50Z</time>
      </trkpt>
      <trkpt lat="43.62122" lon="5.87706">
        <ele>356.7</ele>
        <time>2024-03-18T12:50:01Z</time>
      </trkpt>
      <trkpt lat="43.62122" lon="5.87694">
        <ele>357.5</ele>
        <time>2024-03-18T12:50:38Z</time>
      </trkpt>
      <trkpt lat="43.62116" lon="5.87684">
        <ele>358.1</ele>
        <time>2024-03-18T12:57:46Z</time>
      </trkpt>
      <trkpt lat="43.62111" lon="5.87674">
        <ele>358.7</ele>
        <time>2024-03-18T12:57:57Z</time>
      </trkpt>
      <trkpt lat="43.62107" lon="5.87662">
        <ele>358.9</ele>
        <time>2024-03-18T12:58:07Z</time>
      </trkpt>
      <trkpt lat="43.62103" lon="5.87651">
        <ele>359</ele>
        <time>2024-03-18T12:58:16Z</time>
      </trkpt>
      <trkpt lat="43.62098" lon="5.8764">
        <ele>359.4</ele>
        <time>2024-03-18T12:58:25Z</time>
      </trkpt>
      <trkpt lat="43.62092" lon="5.8763">
        <ele>359.6</ele>
        <time>2024-03-18T12:58:34Z</time>
      </trkpt>
      <trkpt lat="43.62085" lon="5.87621">
        <ele>359.8</ele>
        <time>2024-03-18T12:58:42Z</time>
      </trkpt>
      <trkpt lat="43.62082" lon="5.87608">
        <ele>359.8</ele>
        <time>2024-03-18T12:58:52Z</time>
      </trkpt>
      <trkpt lat="43.62076" lon="5.87597">
        <ele>360.3</ele>
        <time>2024-03-18T12:59:02Z</time>
      </trkpt>
      <trkpt lat="43.62074" lon="5.87584">
        <ele>360.6</ele>
        <time>2024-03-18T12:59:18Z</time>
      </trkpt>
      <trkpt lat="43.62069" lon="5.87573">
        <ele>360.3</ele>
        <time>2024-03-18T12:59:26Z</time>
      </trkpt>
      <trkpt lat="43.62065" lon="5.87561">
        <ele>360.7</ele>
        <time>2024-03-18T12:59:35Z</time>
      </trkpt>
      <trkpt lat="43.62059" lon="5.87551">
        <ele>361.2</ele>
        <time>2024-03-18T12:59:44Z</time>
      </trkpt>
      <trkpt lat="43.62054" lon="5.87539">
        <ele>361.3</ele>
        <time>2024-03-18T12:59:53Z</time>
      </trkpt>
      <trkpt lat="43.62049" lon="5.87529">
        <ele>361.6</ele>
        <time>2024-03-18T13:00:05Z</time>
      </trkpt>
      <trkpt lat="43.62041" lon="5.8752">
        <ele>361.8</ele>
        <time>2024-03-18T13:00:16Z</time>
      </trkpt>
      <trkpt lat="43.62034" lon="5.87513">
        <ele>361.9</ele>
        <time>2024-03-18T13:00:23Z</time>
      </trkpt>
      <trkpt lat="43.62026" lon="5.87507">
        <ele>362.3</ele>
        <time>2024-03-18T13:00:31Z</time>
      </trkpt>
      <trkpt lat="43.62017" lon="5.875">
        <ele>362.6</ele>
        <time>2024-03-18T13:00:43Z</time>
      </trkpt>
      <trkpt lat="43.6201" lon="5.87492">
        <ele>363.1</ele>
        <time>2024-03-18T13:00:53Z</time>
      </trkpt>
      <trkpt lat="43.62002" lon="5.87486">
        <ele>364.2</ele>
        <time>2024-03-18T13:01:06Z</time>
      </trkpt>
      <trkpt lat="43.61994" lon="5.87477">
        <ele>364.9</ele>
        <time>2024-03-18T13:01:17Z</time>
      </trkpt>
      <trkpt lat="43.61987" lon="5.87468">
        <ele>365.3</ele>
        <time>2024-03-18T13:01:27Z</time>
      </trkpt>
      <trkpt lat="43.61983" lon="5.87457">
        <ele>366.6</ele>
        <time>2024-03-18T13:01:39Z</time>
      </trkpt>
      <trkpt lat="43.61976" lon="5.87448">
        <ele>366.6</ele>
        <time>2024-03-18T13:01:48Z</time>
      </trkpt>
      <trkpt lat="43.61967" lon="5.87445">
        <ele>367.2</ele>
        <time>2024-03-18T13:01:59Z</time>
      </trkpt>
      <trkpt lat="43.61958" lon="5.87443">
        <ele>367.7</ele>
        <time>2024-03-18T13:02:09Z</time>
      </trkpt>
      <trkpt lat="43.61948" lon="5.87444">
        <ele>368</ele>
        <time>2024-03-18T13:02:21Z</time>
      </trkpt>
      <trkpt lat="43.61938" lon="5.87444">
        <ele>368.4</ele>
        <time>2024-03-18T13:02:31Z</time>
      </trkpt>
      <trkpt lat="43.61929" lon="5.87441">
        <ele>368.7</ele>
        <time>2024-03-18T13:02:42Z</time>
      </trkpt>
      <trkpt lat="43.6192" lon="5.87439">
        <ele>369.6</ele>
        <time>2024-03-18T13:02:51Z</time>
      </trkpt>
      <trkpt lat="43.61911" lon="5.87437">
        <ele>369.6</ele>
        <time>2024-03-18T13:03:02Z</time>
      </trkpt>
      <trkpt lat="43.61901" lon="5.87437">
        <ele>369.9</ele>
        <time>2024-03-18T13:03:10Z</time>
      </trkpt>
      <trkpt lat="43.61891" lon="5.8744">
        <ele>369.8</ele>
        <time>2024-03-18T13:03:18Z</time>
      </trkpt>
      <trkpt lat="43.61882" lon="5.87442">
        <ele>370.7</ele>
        <time>2024-03-18T13:03:31Z</time>
      </trkpt>
      <trkpt lat="43.61872" lon="5.87443">
        <ele>371.3</ele>
        <time>2024-03-18T13:03:40Z</time>
      </trkpt>
      <trkpt lat="43.61866" lon="5.87433">
        <ele>372</ele>
        <time>2024-03-18T13:03:52Z</time>
      </trkpt>
      <trkpt lat="43.61864" lon="5.8742">
        <ele>372.2</ele>
        <time>2024-03-18T13:04:02Z</time>
      </trkpt>
      <trkpt lat="43.61862" lon="5.87407">
        <ele>371.8</ele>
        <time>2024-03-18T13:04:12Z</time>
      </trkpt>
      <trkpt lat="43.61862" lon="5.87395">
        <ele>372.2</ele>
        <time>2024-03-18T13:04:22Z</time>
      </trkpt>
      <trkpt lat="43.61864" lon="5.87382">
        <ele>372.1</ele>
        <time>2024-03-18T13:04:32Z</time>
      </trkpt>
      <trkpt lat="43.61868" lon="5.8737">
        <ele>372.1</ele>
        <time>2024-03-18T13:04:42Z</time>
      </trkpt>
      <trkpt lat="43.61866" lon="5.87358">
        <ele>373.1</ele>
        <time>2024-03-18T13:04:51Z</time>
      </trkpt>
      <trkpt lat="43.61859" lon="5.8735">
        <ele>373</ele>
        <time>2024-03-18T13:05:00Z</time>
      </trkpt>
      <trkpt lat="43.6185" lon="5.87345">
        <ele>373.2</ele>
        <time>2024-03-18T13:05:10Z</time>
      </trkpt>
      <trkpt lat="43.61841" lon="5.8734">
        <ele>373.6</ele>
        <time>2024-03-18T13:05:21Z</time>
      </trkpt>
      <trkpt lat="43.61833" lon="5.87336">
        <ele>374.3</ele>
        <time>2024-03-18T13:05:35Z</time>
      </trkpt>
      <trkpt lat="43.61824" lon="5.87332">
        <ele>374.7</ele>
        <time>2024-03-18T13:05:45Z</time>
      </trkpt>
      <trkpt lat="43.61815" lon="5.87327">
        <ele>375.4</ele>
        <time>2024-03-18T13:05:56Z</time>
      </trkpt>
      <trkpt lat="43.61806" lon="5.87324">
        <ele>376.1</ele>
        <time>2024-03-18T13:06:08Z</time>
      </trkpt>
      <trkpt lat="43.61798" lon="5.87318">
        <ele>376.7</ele>
        <time>2024-03-18T13:06:19Z</time>
      </trkpt>
      <trkpt lat="43.61788" lon="5.87315">
        <ele>377.5</ele>
        <time>2024-03-18T13:06:30Z</time>
      </trkpt>
      <trkpt lat="43.61779" lon="5.87312">
        <ele>379.1</ele>
        <time>2024-03-18T13:06:49Z</time>
      </trkpt>
      <trkpt lat="43.6177" lon="5.87309">
        <ele>379.9</ele>
        <time>2024-03-18T13:07:02Z</time>
      </trkpt>
      <trkpt lat="43.6176" lon="5.8731">
        <ele>381</ele>
        <time>2024-03-18T13:07:18Z</time>
      </trkpt>
      <trkpt lat="43.61751" lon="5.87306">
        <ele>382.3</ele>
        <time>2024-03-18T13:07:32Z</time>
      </trkpt>
      <trkpt lat="43.61744" lon="5.87298">
        <ele>384.2</ele>
        <time>2024-03-18T13:08:03Z</time>
      </trkpt>
      <trkpt lat="43.61737" lon="5.87289">
        <ele>386.6</ele>
        <time>2024-03-18T13:08:58Z</time>
      </trkpt>
      <trkpt lat="43.6173" lon="5.87282">
        <ele>387.8</ele>
        <time>2024-03-18T13:09:12Z</time>
      </trkpt>
      <trkpt lat="43.61722" lon="5.87275">
        <ele>389.5</ele>
        <time>2024-03-18T13:09:27Z</time>
      </trkpt>
      <trkpt lat="43.61714" lon="5.8727">
        <ele>390.9</ele>
        <time>2024-03-18T13:09:44Z</time>
      </trkpt>
      <trkpt lat="43.61707" lon="5.87261">
        <ele>392.3</ele>
        <time>2024-03-18T13:10:01Z</time>
      </trkpt>
      <trkpt lat="43.61699" lon="5.87253">
        <ele>393.1</ele>
        <time>2024-03-18T13:10:15Z</time>
      </trkpt>
      <trkpt lat="43.61691" lon="5.87247">
        <ele>394.8</ele>
        <time>2024-03-18T13:10:29Z</time>
      </trkpt>
      <trkpt lat="43.61683" lon="5.87243">
        <ele>396</ele>
        <time>2024-03-18T13:10:43Z</time>
      </trkpt>
      <trkpt lat="43.61673" lon="5.8724">
        <ele>398.2</ele>
        <time>2024-03-18T13:11:00Z</time>
      </trkpt>
      <trkpt lat="43.61664" lon="5.87244">
        <ele>399.5</ele>
        <time>2024-03-18T13:11:17Z</time>
      </trkpt>
      <trkpt lat="43.61656" lon="5.87248">
        <ele>400.7</ele>
        <time>2024-03-18T13:11:32Z</time>
      </trkpt>
      <trkpt lat="43.61648" lon="5.87254">
        <ele>401.3</ele>
        <time>2024-03-18T13:11:51Z</time>
      </trkpt>
      <trkpt lat="43.6164" lon="5.8726">
        <ele>402.7</ele>
        <time>2024-03-18T13:12:05Z</time>
      </trkpt>
      <trkpt lat="43.61631" lon="5.87266">
        <ele>403.9</ele>
        <time>2024-03-18T13:12:20Z</time>
      </trkpt>
      <trkpt lat="43.61623" lon="5.87272">
        <ele>404.7</ele>
        <time>2024-03-18T13:12:34Z</time>
      </trkpt>
      <trkpt lat="43.61614" lon="5.87278">
        <ele>405.7</ele>
        <time>2024-03-18T13:12:47Z</time>
      </trkpt>
      <trkpt lat="43.61606" lon="5.87285">
        <ele>406.1</ele>
        <time>2024-03-18T13:13:01Z</time>
      </trkpt>
      <trkpt lat="43.61598" lon="5.87291">
        <ele>406.5</ele>
        <time>2024-03-18T13:13:13Z</time>
      </trkpt>
      <trkpt lat="43.6159" lon="5.87298">
        <ele>407.5</ele>
        <time>2024-03-18T13:13:26Z</time>
      </trkpt>
      <trkpt lat="43.61582" lon="5.87304">
        <ele>408.4</ele>
        <time>2024-03-18T13:13:38Z</time>
      </trkpt>
      <trkpt lat="43.61574" lon="5.8731">
        <ele>409.1</ele>
        <time>2024-03-18T13:13:51Z</time>
      </trkpt>
      <trkpt lat="43.61567" lon="5.87318">
        <ele>411</ele>
        <time>2024-03-18T13:16:12Z</time>
      </trkpt>
      <trkpt lat="43.61558" lon="5.87317">
        <ele>411.2</ele>
        <time>2024-03-18T13:22:26Z</time>
      </trkpt>
      <trkpt lat="43.61548" lon="5.87322">
        <ele>412.4</ele>
        <time>2024-03-18T13:22:38Z</time>
      </trkpt>
      <trkpt lat="43.61542" lon="5.87332">
        <ele>413.5</ele>
        <time>2024-03-18T13:22:50Z</time>
      </trkpt>
      <trkpt lat="43.61538" lon="5.87343">
        <ele>414.2</ele>
        <time>2024-03-18T13:23:02Z</time>
      </trkpt>
      <trkpt lat="43.61534" lon="5.87355">
        <ele>414.6</ele>
        <time>2024-03-18T13:23:13Z</time>
      </trkpt>
      <trkpt lat="43.61528" lon="5.87364">
        <ele>415</ele>
        <time>2024-03-18T13:23:24Z</time>
      </trkpt>
      <trkpt lat="43.61519" lon="5.87369">
        <ele>415.7</ele>
        <time>2024-03-18T13:23:37Z</time>
      </trkpt>
      <trkpt lat="43.61509" lon="5.8737">
        <ele>416.5</ele>
        <time>2024-03-18T13:23:49Z</time>
      </trkpt>
      <trkpt lat="43.615" lon="5.8737">
        <ele>417.5</ele>
        <time>2024-03-18T13:24:03Z</time>
      </trkpt>
      <trkpt lat="43.6149" lon="5.8737">
        <ele>418.9</ele>
        <time>2024-03-18T13:24:15Z</time>
      </trkpt>
      <trkpt lat="43.6148" lon="5.87368">
        <ele>419.9</ele>
        <time>2024-03-18T13:24:26Z</time>
      </trkpt>
      <trkpt lat="43.61471" lon="5.87367">
        <ele>420.1</ele>
        <time>2024-03-18T13:24:37Z</time>
      </trkpt>
      <trkpt lat="43.61461" lon="5.87369">
        <ele>420.8</ele>
        <time>2024-03-18T13:24:49Z</time>
      </trkpt>
      <trkpt lat="43.61454" lon="5.87376">
        <ele>421.8</ele>
        <time>2024-03-18T13:24:59Z</time>
      </trkpt>
      <trkpt lat="43.61447" lon="5.87385">
        <ele>422.6</ele>
        <time>2024-03-18T13:25:11Z</time>
      </trkpt>
      <trkpt lat="43.61441" lon="5.87395">
        <ele>422.9</ele>
        <time>2024-03-18T13:25:24Z</time>
      </trkpt>
      <trkpt lat="43.61434" lon="5.87403">
        <ele>423.4</ele>
        <time>2024-03-18T13:25:39Z</time>
      </trkpt>
      <trkpt lat="43.61432" lon="5.87416">
        <ele>423.7</ele>
        <time>2024-03-18T13:25:59Z</time>
      </trkpt>
      <trkpt lat="43.61427" lon="5.87426">
        <ele>423.9</ele>
        <time>2024-03-18T13:26:21Z</time>
      </trkpt>
      <trkpt lat="43.61424" lon="5.87439">
        <ele>424.2</ele>
        <time>2024-03-18T13:32:07Z</time>
      </trkpt>
      <trkpt lat="43.61419" lon="5.87449">
        <ele>424</ele>
        <time>2024-03-18T13:32:17Z</time>
      </trkpt>
      <trkpt lat="43.61414" lon="5.87461">
        <ele>426</ele>
        <time>2024-03-18T13:33:37Z</time>
      </trkpt>
      <trkpt lat="43.61409" lon="5.87473">
        <ele>425.7</ele>
        <time>2024-03-18T13:33:50Z</time>
      </trkpt>
      <trkpt lat="43.61401" lon="5.87479">
        <ele>425.9</ele>
        <time>2024-03-18T13:34:02Z</time>
      </trkpt>
      <trkpt lat="43.61392" lon="5.87482">
        <ele>426.5</ele>
        <time>2024-03-18T13:34:14Z</time>
      </trkpt>
      <trkpt lat="43.61382" lon="5.87485">
        <ele>426.8</ele>
        <time>2024-03-18T13:34:25Z</time>
      </trkpt>
      <trkpt lat="43.61373" lon="5.87487">
        <ele>426.9</ele>
        <time>2024-03-18T13:34:36Z</time>
      </trkpt>
      <trkpt lat="43.61363" lon="5.8749">
        <ele>427.3</ele>
        <time>2024-03-18T13:34:46Z</time>
      </trkpt>
      <trkpt lat="43.61354" lon="5.87491">
        <ele>427.3</ele>
        <time>2024-03-18T13:34:56Z</time>
      </trkpt>
      <trkpt lat="43.61345" lon="5.87491">
        <ele>427.4</ele>
        <time>2024-03-18T13:35:05Z</time>
      </trkpt>
      <trkpt lat="43.61335" lon="5.87491">
        <ele>427.8</ele>
        <time>2024-03-18T13:35:16Z</time>
      </trkpt>
      <trkpt lat="43.61326" lon="5.87492">
        <ele>428.1</ele>
        <time>2024-03-18T13:35:26Z</time>
      </trkpt>
      <trkpt lat="43.61317" lon="5.8749">
        <ele>428.9</ele>
        <time>2024-03-18T13:35:38Z</time>
      </trkpt>
      <trkpt lat="43.61307" lon="5.87487">
        <ele>429.7</ele>
        <time>2024-03-18T13:35:50Z</time>
      </trkpt>
      <trkpt lat="43.61297" lon="5.87486">
        <ele>430.2</ele>
        <time>2024-03-18T13:36:01Z</time>
      </trkpt>
      <trkpt lat="43.61288" lon="5.87485">
        <ele>430.5</ele>
        <time>2024-03-18T13:36:13Z</time>
      </trkpt>
      <trkpt lat="43.61279" lon="5.87488">
        <ele>431.2</ele>
        <time>2024-03-18T13:36:25Z</time>
      </trkpt>
      <trkpt lat="43.6127" lon="5.8749">
        <ele>431.7</ele>
        <time>2024-03-18T13:36:36Z</time>
      </trkpt>
      <trkpt lat="43.61261" lon="5.8749">
        <ele>432.6</ele>
        <time>2024-03-18T13:36:48Z</time>
      </trkpt>
      <trkpt lat="43.61252" lon="5.87487">
        <ele>433.2</ele>
        <time>2024-03-18T13:36:57Z</time>
      </trkpt>
      <trkpt lat="43.61244" lon="5.8748">
        <ele>433.5</ele>
        <time>2024-03-18T13:37:06Z</time>
      </trkpt>
      <trkpt lat="43.61236" lon="5.87475">
        <ele>434.2</ele>
        <time>2024-03-18T13:37:15Z</time>
      </trkpt>
      <trkpt lat="43.61227" lon="5.87476">
        <ele>434.9</ele>
        <time>2024-03-18T13:37:25Z</time>
      </trkpt>
      <trkpt lat="43.61217" lon="5.87477">
        <ele>435.7</ele>
        <time>2024-03-18T13:37:34Z</time>
      </trkpt>
      <trkpt lat="43.61208" lon="5.87481">
        <ele>435.3</ele>
        <time>2024-03-18T13:37:44Z</time>
      </trkpt>
      <trkpt lat="43.612" lon="5.87487">
        <ele>435.9</ele>
        <time>2024-03-18T13:37:54Z</time>
      </trkpt>
      <trkpt lat="43.61192" lon="5.87495">
        <ele>435.6</ele>
        <time>2024-03-18T13:38:05Z</time>
      </trkpt>
      <trkpt lat="43.61186" lon="5.87505">
        <ele>436.1</ele>
        <time>2024-03-18T13:38:15Z</time>
      </trkpt>
      <trkpt lat="43.61178" lon="5.87513">
        <ele>436.4</ele>
        <time>2024-03-18T13:38:28Z</time>
      </trkpt>
      <trkpt lat="43.6117" lon="5.8752">
        <ele>436.4</ele>
        <time>2024-03-18T13:38:38Z</time>
      </trkpt>
      <trkpt lat="43.61162" lon="5.87528">
        <ele>436</ele>
        <time>2024-03-18T13:38:47Z</time>
      </trkpt>
      <trkpt lat="43.61154" lon="5.87534">
        <ele>436.2</ele>
        <time>2024-03-18T13:38:57Z</time>
      </trkpt>
      <trkpt lat="43.61145" lon="5.87536">
        <ele>436.3</ele>
        <time>2024-03-18T13:39:15Z</time>
      </trkpt>
      <trkpt lat="43.61136" lon="5.87539">
        <ele>436.9</ele>
        <time>2024-03-18T13:39:33Z</time>
      </trkpt>
      <trkpt lat="43.61127" lon="5.87542">
        <ele>437</ele>
        <time>2024-03-18T13:39:50Z</time>
      </trkpt>
      <trkpt lat="43.61121" lon="5.87552">
        <ele>436.9</ele>
        <time>2024-03-18T13:40:04Z</time>
      </trkpt>
      <trkpt lat="43.61112" lon="5.87556">
        <ele>437.3</ele>
        <time>2024-03-18T13:41:23Z</time>
      </trkpt>
      <trkpt lat="43.61103" lon="5.87561">
        <ele>437.4</ele>
        <time>2024-03-18T13:41:43Z</time>
      </trkpt>
      <trkpt lat="43.61097" lon="5.8757">
        <ele>437.2</ele>
        <time>2024-03-18T13:41:59Z</time>
      </trkpt>
      <trkpt lat="43.61089" lon="5.87577">
        <ele>437.5</ele>
        <time>2024-03-18T13:42:08Z</time>
      </trkpt>
      <trkpt lat="43.6108" lon="5.87584">
        <ele>437.7</ele>
        <time>2024-03-18T13:42:18Z</time>
      </trkpt>
      <trkpt lat="43.61072" lon="5.8759">
        <ele>437.6</ele>
        <time>2024-03-18T13:42:28Z</time>
      </trkpt>
      <trkpt lat="43.61064" lon="5.87597">
        <ele>437.7</ele>
        <time>2024-03-18T13:42:38Z</time>
      </trkpt>
      <trkpt lat="43.61057" lon="5.87604">
        <ele>438.1</ele>
        <time>2024-03-18T13:42:49Z</time>
      </trkpt>
      <trkpt lat="43.61049" lon="5.87613">
        <ele>438.1</ele>
        <time>2024-03-18T13:42:59Z</time>
      </trkpt>
      <trkpt lat="43.61042" lon="5.87622">
        <ele>437.9</ele>
        <time>2024-03-18T13:43:10Z</time>
      </trkpt>
      <trkpt lat="43.61034" lon="5.87628">
        <ele>437.7</ele>
        <time>2024-03-18T13:43:20Z</time>
      </trkpt>
      <trkpt lat="43.61025" lon="5.8763">
        <ele>438.2</ele>
        <time>2024-03-18T13:43:30Z</time>
      </trkpt>
      <trkpt lat="43.61016" lon="5.87631">
        <ele>438.3</ele>
        <time>2024-03-18T13:43:42Z</time>
      </trkpt>
      <trkpt lat="43.61006" lon="5.87634">
        <ele>438.8</ele>
        <time>2024-03-18T13:43:54Z</time>
      </trkpt>
      <trkpt lat="43.60997" lon="5.87634">
        <ele>439.2</ele>
        <time>2024-03-18T13:44:03Z</time>
      </trkpt>
      <trkpt lat="43.60988" lon="5.87636">
        <ele>439.6</ele>
        <time>2024-03-18T13:44:14Z</time>
      </trkpt>
      <trkpt lat="43.60979" lon="5.87641">
        <ele>439.7</ele>
        <time>2024-03-18T13:44:25Z</time>
      </trkpt>
      <trkpt lat="43.6097" lon="5.87646">
        <ele>440.1</ele>
        <time>2024-03-18T13:44:37Z</time>
      </trkpt>
      <trkpt lat="43.60962" lon="5.8765">
        <ele>441.1</ele>
        <time>2024-03-18T13:44:48Z</time>
      </trkpt>
      <trkpt lat="43.60953" lon="5.87654">
        <ele>441.8</ele>
        <time>2024-03-18T13:44:58Z</time>
      </trkpt>
      <trkpt lat="43.60946" lon="5.87663">
        <ele>442</ele>
        <time>2024-03-18T13:45:09Z</time>
      </trkpt>
      <trkpt lat="43.60941" lon="5.87674">
        <ele>442.6</ele>
        <time>2024-03-18T13:45:19Z</time>
      </trkpt>
      <trkpt lat="43.60938" lon="5.87687">
        <ele>441.9</ele>
        <time>2024-03-18T13:45:32Z</time>
      </trkpt>
      <trkpt lat="43.60935" lon="5.87699">
        <ele>442.7</ele>
        <time>2024-03-18T13:45:43Z</time>
      </trkpt>
      <trkpt lat="43.60932" lon="5.87711">
        <ele>443</ele>
        <time>2024-03-18T13:46:33Z</time>
      </trkpt>
      <trkpt lat="43.60925" lon="5.87719">
        <ele>443.7</ele>
        <time>2024-03-18T13:46:46Z</time>
      </trkpt>
      <trkpt lat="43.60916" lon="5.8772">
        <ele>444.1</ele>
        <time>2024-03-18T13:47:00Z</time>
      </trkpt>
      <trkpt lat="43.60906" lon="5.87719">
        <ele>444.3</ele>
        <time>2024-03-18T13:47:12Z</time>
      </trkpt>
      <trkpt lat="43.60896" lon="5.8772">
        <ele>444.9</ele>
        <time>2024-03-18T13:47:24Z</time>
      </trkpt>
      <trkpt lat="43.60888" lon="5.87725">
        <ele>445.6</ele>
        <time>2024-03-18T13:47:34Z</time>
      </trkpt>
      <trkpt lat="43.60879" lon="5.87731">
        <ele>445.8</ele>
        <time>2024-03-18T13:47:45Z</time>
      </trkpt>
      <trkpt lat="43.60871" lon="5.87739">
        <ele>446.2</ele>
        <time>2024-03-18T13:47:57Z</time>
      </trkpt>
      <trkpt lat="43.60864" lon="5.87747">
        <ele>447.2</ele>
        <time>2024-03-18T13:48:11Z</time>
      </trkpt>
      <trkpt lat="43.60858" lon="5.87757">
        <ele>447.6</ele>
        <time>2024-03-18T13:48:22Z</time>
      </trkpt>
      <trkpt lat="43.60851" lon="5.87766">
        <ele>448.3</ele>
        <time>2024-03-18T13:48:34Z</time>
      </trkpt>
      <trkpt lat="43.60844" lon="5.87775">
        <ele>448.5</ele>
        <time>2024-03-18T13:48:46Z</time>
      </trkpt>
      <trkpt lat="43.60837" lon="5.87784">
        <ele>448.5</ele>
        <time>2024-03-18T13:48:56Z</time>
      </trkpt>
      <trkpt lat="43.6083" lon="5.87791">
        <ele>449</ele>
        <time>2024-03-18T13:49:07Z</time>
      </trkpt>
      <trkpt lat="43.60823" lon="5.878">
        <ele>449.4</ele>
        <time>2024-03-18T13:49:18Z</time>
      </trkpt>
      <trkpt lat="43.60818" lon="5.87811">
        <ele>449.7</ele>
        <time>2024-03-18T13:49:30Z</time>
      </trkpt>
      <trkpt lat="43.60812" lon="5.8782">
        <ele>450.3</ele>
        <time>2024-03-18T13:49:45Z</time>
      </trkpt>
      <trkpt lat="43.60804" lon="5.87826">
        <ele>450.7</ele>
        <time>2024-03-18T13:50:11Z</time>
      </trkpt>
      <trkpt lat="43.60795" lon="5.8782">
        <ele>452.1</ele>
        <time>2024-03-18T13:56:23Z</time>
      </trkpt>
      <trkpt lat="43.6079" lon="5.87809">
        <ele>451.8</ele>
        <time>2024-03-18T13:56:37Z</time>
      </trkpt>
      <trkpt lat="43.60783" lon="5.878">
        <ele>452.5</ele>
        <time>2024-03-18T13:56:50Z</time>
      </trkpt>
      <trkpt lat="43.60778" lon="5.8779">
        <ele>452.9</ele>
        <time>2024-03-18T13:57:01Z</time>
      </trkpt>
      <trkpt lat="43.60773" lon="5.87778">
        <ele>453.5</ele>
        <time>2024-03-18T13:57:20Z</time>
      </trkpt>
      <trkpt lat="43.60769" lon="5.87767">
        <ele>453.8</ele>
        <time>2024-03-18T13:57:31Z</time>
      </trkpt>
      <trkpt lat="43.6076" lon="5.87769">
        <ele>454.4</ele>
        <time>2024-03-18T13:57:52Z</time>
      </trkpt>
      <trkpt lat="43.60753" lon="5.87778">
        <ele>455.2</ele>
        <time>2024-03-18T13:58:07Z</time>
      </trkpt>
      <trkpt lat="43.60748" lon="5.87788">
        <ele>455.9</ele>
        <time>2024-03-18T13:58:18Z</time>
      </trkpt>
      <trkpt lat="43.60741" lon="5.87798">
        <ele>456.6</ele>
        <time>2024-03-18T13:58:29Z</time>
      </trkpt>
      <trkpt lat="43.60734" lon="5.87807">
        <ele>457.4</ele>
        <time>2024-03-18T13:58:41Z</time>
      </trkpt>
      <trkpt lat="43.60728" lon="5.87817">
        <ele>458</ele>
        <time>2024-03-18T13:58:51Z</time>
      </trkpt>
      <trkpt lat="43.60722" lon="5.87827">
        <ele>458.4</ele>
        <time>2024-03-18T13:59:02Z</time>
      </trkpt>
      <trkpt lat="43.60715" lon="5.87836">
        <ele>458.5</ele>
        <time>2024-03-18T13:59:11Z</time>
      </trkpt>
      <trkpt lat="43.60708" lon="5.87846">
        <ele>458.6</ele>
        <time>2024-03-18T13:59:20Z</time>
      </trkpt>
      <trkpt lat="43.60702" lon="5.87857">
        <ele>458.7</ele>
        <time>2024-03-18T13:59:28Z</time>
      </trkpt>
      <trkpt lat="43.60696" lon="5.87866">
        <ele>458.8</ele>
        <time>2024-03-18T13:59:36Z</time>
      </trkpt>
      <trkpt lat="43.60691" lon="5.87876">
        <ele>459</ele>
        <time>2024-03-18T13:59:46Z</time>
      </trkpt>
      <trkpt lat="43.60685" lon="5.87887">
        <ele>458.9</ele>
        <time>2024-03-18T13:59:56Z</time>
      </trkpt>
      <trkpt lat="43.60677" lon="5.87892">
        <ele>458.6</ele>
        <time>2024-03-18T14:00:09Z</time>
      </trkpt>
      <trkpt lat="43.6067" lon="5.87901">
        <ele>458.6</ele>
        <time>2024-03-18T14:00:20Z</time>
      </trkpt>
      <trkpt lat="43.60661" lon="5.87907">
        <ele>458.7</ele>
        <time>2024-03-18T14:00:32Z</time>
      </trkpt>
      <trkpt lat="43.60653" lon="5.87914">
        <ele>458.8</ele>
        <time>2024-03-18T14:00:42Z</time>
      </trkpt>
      <trkpt lat="43.60646" lon="5.87921">
        <ele>458.3</ele>
        <time>2024-03-18T14:00:51Z</time>
      </trkpt>
      <trkpt lat="43.60647" lon="5.87934">
        <ele>457.7</ele>
        <time>2024-03-18T14:01:05Z</time>
      </trkpt>
      <trkpt lat="43.60646" lon="5.87947">
        <ele>458.4</ele>
        <time>2024-03-18T14:01:17Z</time>
      </trkpt>
      <trkpt lat="43.60643" lon="5.8796">
        <ele>458.2</ele>
        <time>2024-03-18T14:01:27Z</time>
      </trkpt>
      <trkpt lat="43.60641" lon="5.87972">
        <ele>458.2</ele>
        <time>2024-03-18T14:01:36Z</time>
      </trkpt>
      <trkpt lat="43.60638" lon="5.87984">
        <ele>458.1</ele>
        <time>2024-03-18T14:01:46Z</time>
      </trkpt>
      <trkpt lat="43.60636" lon="5.87998">
        <ele>458</ele>
        <time>2024-03-18T14:01:57Z</time>
      </trkpt>
      <trkpt lat="43.60637" lon="5.88011">
        <ele>458.2</ele>
        <time>2024-03-18T14:02:08Z</time>
      </trkpt>
      <trkpt lat="43.6064" lon="5.88023">
        <ele>458.9</ele>
        <time>2024-03-18T14:02:18Z</time>
      </trkpt>
      <trkpt lat="43.60642" lon="5.88035">
        <ele>459.1</ele>
        <time>2024-03-18T14:02:28Z</time>
      </trkpt>
      <trkpt lat="43.60643" lon="5.88049">
        <ele>459.2</ele>
        <time>2024-03-18T14:02:40Z</time>
      </trkpt>
      <trkpt lat="43.60645" lon="5.88061">
        <ele>459.7</ele>
        <time>2024-03-18T14:02:50Z</time>
      </trkpt>
      <trkpt lat="43.60648" lon="5.88075">
        <ele>459.9</ele>
        <time>2024-03-18T14:03:00Z</time>
      </trkpt>
      <trkpt lat="43.60644" lon="5.88087">
        <ele>460.5</ele>
        <time>2024-03-18T14:03:10Z</time>
      </trkpt>
      <trkpt lat="43.60643" lon="5.88099">
        <ele>460.7</ele>
        <time>2024-03-18T14:03:22Z</time>
      </trkpt>
      <trkpt lat="43.60643" lon="5.88112">
        <ele>461</ele>
        <time>2024-03-18T14:03:31Z</time>
      </trkpt>
      <trkpt lat="43.60643" lon="5.88125">
        <ele>461.3</ele>
        <time>2024-03-18T14:03:41Z</time>
      </trkpt>
      <trkpt lat="43.60643" lon="5.88139">
        <ele>461.6</ele>
        <time>2024-03-18T14:03:51Z</time>
      </trkpt>
      <trkpt lat="43.60647" lon="5.8815">
        <ele>462</ele>
        <time>2024-03-18T14:04:03Z</time>
      </trkpt>
      <trkpt lat="43.60651" lon="5.88161">
        <ele>462.1</ele>
        <time>2024-03-18T14:04:13Z</time>
      </trkpt>
      <trkpt lat="43.60648" lon="5.88174">
        <ele>462.8</ele>
        <time>2024-03-18T14:04:26Z</time>
      </trkpt>
      <trkpt lat="43.60647" lon="5.88186">
        <ele>463</ele>
        <time>2024-03-18T14:04:40Z</time>
      </trkpt>
      <trkpt lat="43.60649" lon="5.88199">
        <ele>463.1</ele>
        <time>2024-03-18T14:04:51Z</time>
      </trkpt>
      <trkpt lat="43.60649" lon="5.88211">
        <ele>463.4</ele>
        <time>2024-03-18T14:05:01Z</time>
      </trkpt>
      <trkpt lat="43.60644" lon="5.88223">
        <ele>463.4</ele>
        <time>2024-03-18T14:05:11Z</time>
      </trkpt>
      <trkpt lat="43.60638" lon="5.88234">
        <ele>463.2</ele>
        <time>2024-03-18T14:05:20Z</time>
      </trkpt>
      <trkpt lat="43.60636" lon="5.88246">
        <ele>463.3</ele>
        <time>2024-03-18T14:05:31Z</time>
      </trkpt>
      <trkpt lat="43.60635" lon="5.88259">
        <ele>463.6</ele>
        <time>2024-03-18T14:05:42Z</time>
      </trkpt>
      <trkpt lat="43.60634" lon="5.88272">
        <ele>463.6</ele>
        <time>2024-03-18T14:05:55Z</time>
      </trkpt>
      <trkpt lat="43.60632" lon="5.88285">
        <ele>464</ele>
        <time>2024-03-18T14:06:04Z</time>
      </trkpt>
      <trkpt lat="43.60628" lon="5.88297">
        <ele>464.3</ele>
        <time>2024-03-18T14:06:15Z</time>
      </trkpt>
      <trkpt lat="43.60622" lon="5.88308">
        <ele>464.4</ele>
        <time>2024-03-18T14:06:23Z</time>
      </trkpt>
      <trkpt lat="43.60618" lon="5.8832">
        <ele>464.4</ele>
        <time>2024-03-18T14:06:31Z</time>
      </trkpt>
      <trkpt lat="43.60615" lon="5.88333">
        <ele>464.5</ele>
        <time>2024-03-18T14:06:40Z</time>
      </trkpt>
      <trkpt lat="43.60614" lon="5.88346">
        <ele>464.8</ele>
        <time>2024-03-18T14:06:50Z</time>
      </trkpt>
      <trkpt lat="43.60617" lon="5.88358">
        <ele>465.1</ele>
        <time>2024-03-18T14:07:01Z</time>
      </trkpt>
      <trkpt lat="43.60619" lon="5.88371">
        <ele>465.2</ele>
        <time>2024-03-18T14:07:10Z</time>
      </trkpt>
      <trkpt lat="43.60617" lon="5.88384">
        <ele>465.6</ele>
        <time>2024-03-18T14:07:20Z</time>
      </trkpt>
      <trkpt lat="43.60616" lon="5.88397">
        <ele>465.6</ele>
        <time>2024-03-18T14:07:31Z</time>
      </trkpt>
      <trkpt lat="43.60613" lon="5.88409">
        <ele>465.8</ele>
        <time>2024-03-18T14:07:41Z</time>
      </trkpt>
      <trkpt lat="43.6061" lon="5.88421">
        <ele>465.9</ele>
        <time>2024-03-18T14:07:52Z</time>
      </trkpt>
      <trkpt lat="43.60609" lon="5.88434">
        <ele>466</ele>
        <time>2024-03-18T14:08:04Z</time>
      </trkpt>
      <trkpt lat="43.60609" lon="5.88447">
        <ele>465.8</ele>
        <time>2024-03-18T14:08:15Z</time>
      </trkpt>
      <trkpt lat="43.60611" lon="5.8846">
        <ele>465.7</ele>
        <time>2024-03-18T14:08:27Z</time>
      </trkpt>
      <trkpt lat="43.60612" lon="5.88472">
        <ele>465.4</ele>
        <time>2024-03-18T14:08:40Z</time>
      </trkpt>
      <trkpt lat="43.60612" lon="5.88485">
        <ele>466.4</ele>
        <time>2024-03-18T14:08:50Z</time>
      </trkpt>
      <trkpt lat="43.60609" lon="5.88498">
        <ele>467</ele>
        <time>2024-03-18T14:09:00Z</time>
      </trkpt>
      <trkpt lat="43.60605" lon="5.8851">
        <ele>466.8</ele>
        <time>2024-03-18T14:09:13Z</time>
      </trkpt>
      <trkpt lat="43.60604" lon="5.88523">
        <ele>466.6</ele>
        <time>2024-03-18T14:10:22Z</time>
      </trkpt>
      <trkpt lat="43.60606" lon="5.88536">
        <ele>466.9</ele>
        <time>2024-03-18T14:12:32Z</time>
      </trkpt>
      <trkpt lat="43.60609" lon="5.88549">
        <ele>467.2</ele>
        <time>2024-03-18T14:12:42Z</time>
      </trkpt>
      <trkpt lat="43.6061" lon="5.88562">
        <ele>466.7</ele>
        <time>2024-03-18T14:12:51Z</time>
      </trkpt>
      <trkpt lat="43.60613" lon="5.88576">
        <ele>466.5</ele>
        <time>2024-03-18T14:12:59Z</time>
      </trkpt>
      <trkpt lat="43.60615" lon="5.88589">
        <ele>466.3</ele>
        <time>2024-03-18T14:13:06Z</time>
      </trkpt>
      <trkpt lat="43.60614" lon="5.88603">
        <ele>465.9</ele>
        <time>2024-03-18T14:13:15Z</time>
      </trkpt>
      <trkpt lat="43.60612" lon="5.88616">
        <ele>464.5</ele>
        <time>2024-03-18T14:13:23Z</time>
      </trkpt>
      <trkpt lat="43.60609" lon="5.88628">
        <ele>465.1</ele>
        <time>2024-03-18T14:13:31Z</time>
      </trkpt>
      <trkpt lat="43.60605" lon="5.8864">
        <ele>464.5</ele>
        <time>2024-03-18T14:13:41Z</time>
      </trkpt>
      <trkpt lat="43.60602" lon="5.88653">
        <ele>463.8</ele>
        <time>2024-03-18T14:13:50Z</time>
      </trkpt>
      <trkpt lat="43.60602" lon="5.88666">
        <ele>463.7</ele>
        <time>2024-03-18T14:13:56Z</time>
      </trkpt>
      <trkpt lat="43.60603" lon="5.88679">
        <ele>463.7</ele>
        <time>2024-03-18T14:14:04Z</time>
      </trkpt>
      <trkpt lat="43.606" lon="5.88692">
        <ele>463.4</ele>
        <time>2024-03-18T14:14:10Z</time>
      </trkpt>
      <trkpt lat="43.606" lon="5.88706">
        <ele>462.7</ele>
        <time>2024-03-18T14:14:17Z</time>
      </trkpt>
      <trkpt lat="43.60599" lon="5.88719">
        <ele>462.8</ele>
        <time>2024-03-18T14:14:25Z</time>
      </trkpt>
      <trkpt lat="43.60602" lon="5.88732">
        <ele>462.2</ele>
        <time>2024-03-18T14:14:35Z</time>
      </trkpt>
      <trkpt lat="43.60602" lon="5.88746">
        <ele>461.9</ele>
        <time>2024-03-18T14:14:41Z</time>
      </trkpt>
      <trkpt lat="43.60606" lon="5.8876">
        <ele>461.7</ele>
        <time>2024-03-18T14:14:51Z</time>
      </trkpt>
      <trkpt lat="43.60608" lon="5.88773">
        <ele>461.4</ele>
        <time>2024-03-18T14:14:57Z</time>
      </trkpt>
      <trkpt lat="43.6061" lon="5.88787">
        <ele>460.8</ele>
        <time>2024-03-18T14:15:06Z</time>
      </trkpt>
      <trkpt lat="43.60607" lon="5.88799">
        <ele>460.6</ele>
        <time>2024-03-18T14:15:14Z</time>
      </trkpt>
      <trkpt lat="43.60604" lon="5.88811">
        <ele>460.5</ele>
        <time>2024-03-18T14:15:20Z</time>
      </trkpt>
      <trkpt lat="43.606" lon="5.88825">
        <ele>460.1</ele>
        <time>2024-03-18T14:15:29Z</time>
      </trkpt>
      <trkpt lat="43.60598" lon="5.88839">
        <ele>460</ele>
        <time>2024-03-18T14:15:40Z</time>
      </trkpt>
      <trkpt lat="43.60598" lon="5.88852">
        <ele>460</ele>
        <time>2024-03-18T14:15:47Z</time>
      </trkpt>
      <trkpt lat="43.60596" lon="5.88864">
        <ele>460.1</ele>
        <time>2024-03-18T14:15:55Z</time>
      </trkpt>
      <trkpt lat="43.60595" lon="5.88877">
        <ele>460.3</ele>
        <time>2024-03-18T14:16:04Z</time>
      </trkpt>
      <trkpt lat="43.60594" lon="5.88891">
        <ele>460.1</ele>
        <time>2024-03-18T14:16:11Z</time>
      </trkpt>
      <trkpt lat="43.60598" lon="5.8888">
        <ele>460</ele>
        <time>2024-03-18T14:16:40Z</time>
      </trkpt>
      <trkpt lat="43.60602" lon="5.88868">
        <ele>459.9</ele>
        <time>2024-03-18T14:16:50Z</time>
      </trkpt>
      <trkpt lat="43.606" lon="5.88854">
        <ele>460.1</ele>
        <time>2024-03-18T14:16:57Z</time>
      </trkpt>
      <trkpt lat="43.60601" lon="5.8884">
        <ele>460.4</ele>
        <time>2024-03-18T14:17:04Z</time>
      </trkpt>
      <trkpt lat="43.60604" lon="5.88827">
        <ele>460.5</ele>
        <time>2024-03-18T14:17:12Z</time>
      </trkpt>
      <trkpt lat="43.60606" lon="5.88814">
        <ele>460.7</ele>
        <time>2024-03-18T14:17:19Z</time>
      </trkpt>
      <trkpt lat="43.6061" lon="5.88802">
        <ele>461.3</ele>
        <time>2024-03-18T14:17:26Z</time>
      </trkpt>
      <trkpt lat="43.60611" lon="5.88789">
        <ele>461.4</ele>
        <time>2024-03-18T14:17:34Z</time>
      </trkpt>
      <trkpt lat="43.60612" lon="5.88776">
        <ele>461.7</ele>
        <time>2024-03-18T14:17:41Z</time>
      </trkpt>
      <trkpt lat="43.60609" lon="5.88765">
        <ele>462.2</ele>
        <time>2024-03-18T14:17:48Z</time>
      </trkpt>
      <trkpt lat="43.60607" lon="5.88752">
        <ele>462.5</ele>
        <time>2024-03-18T14:17:55Z</time>
      </trkpt>
      <trkpt lat="43.60602" lon="5.88739">
        <ele>462.9</ele>
        <time>2024-03-18T14:18:02Z</time>
      </trkpt>
      <trkpt lat="43.606" lon="5.88726">
        <ele>462.9</ele>
        <time>2024-03-18T14:18:09Z</time>
      </trkpt>
      <trkpt lat="43.60599" lon="5.88713">
        <ele>462.8</ele>
        <time>2024-03-18T14:18:16Z</time>
      </trkpt>
      <trkpt lat="43.60601" lon="5.887">
        <ele>462.9</ele>
        <time>2024-03-18T14:18:24Z</time>
      </trkpt>
      <trkpt lat="43.60601" lon="5.88686">
        <ele>463</ele>
        <time>2024-03-18T14:18:31Z</time>
      </trkpt>
      <trkpt lat="43.60599" lon="5.88674">
        <ele>463.4</ele>
        <time>2024-03-18T14:18:38Z</time>
      </trkpt>
      <trkpt lat="43.60602" lon="5.88662">
        <ele>464</ele>
        <time>2024-03-18T14:18:47Z</time>
      </trkpt>
      <trkpt lat="43.60605" lon="5.8865">
        <ele>464.7</ele>
        <time>2024-03-18T14:18:58Z</time>
      </trkpt>
      <trkpt lat="43.60609" lon="5.88638">
        <ele>465.2</ele>
        <time>2024-03-18T14:19:06Z</time>
      </trkpt>
      <trkpt lat="43.60612" lon="5.88626">
        <ele>465.4</ele>
        <time>2024-03-18T14:19:14Z</time>
      </trkpt>
      <trkpt lat="43.60617" lon="5.88614">
        <ele>466.2</ele>
        <time>2024-03-18T14:19:23Z</time>
      </trkpt>
      <trkpt lat="43.60617" lon="5.88601">
        <ele>466.1</ele>
        <time>2024-03-18T14:19:30Z</time>
      </trkpt>
      <trkpt lat="43.60615" lon="5.88588">
        <ele>466.5</ele>
        <time>2024-03-18T14:19:37Z</time>
      </trkpt>
      <trkpt lat="43.60611" lon="5.88576">
        <ele>466.9</ele>
        <time>2024-03-18T14:19:45Z</time>
      </trkpt>
      <trkpt lat="43.60608" lon="5.88564">
        <ele>466.8</ele>
        <time>2024-03-18T14:19:52Z</time>
      </trkpt>
      <trkpt lat="43.6061" lon="5.88576">
        <ele>467.2</ele>
        <time>2024-03-18T14:20:38Z</time>
      </trkpt>
      <trkpt lat="43.60614" lon="5.88588">
        <ele>466.8</ele>
        <time>2024-03-18T14:20:47Z</time>
      </trkpt>
      <trkpt lat="43.60615" lon="5.88601">
        <ele>466.8</ele>
        <time>2024-03-18T14:21:00Z</time>
      </trkpt>
      <trkpt lat="43.60613" lon="5.88614">
        <ele>466.5</ele>
        <time>2024-03-18T14:21:10Z</time>
      </trkpt>
      <trkpt lat="43.60611" lon="5.88627">
        <ele>466.2</ele>
        <time>2024-03-18T14:21:19Z</time>
      </trkpt>
      <trkpt lat="43.60607" lon="5.8864">
        <ele>465.5</ele>
        <time>2024-03-18T14:21:32Z</time>
      </trkpt>
      <trkpt lat="43.60602" lon="5.88651">
        <ele>465.3</ele>
        <time>2024-03-18T14:21:42Z</time>
      </trkpt>
      <trkpt lat="43.60599" lon="5.88663">
        <ele>464.5</ele>
        <time>2024-03-18T14:21:53Z</time>
      </trkpt>
      <trkpt lat="43.60599" lon="5.88676">
        <ele>464.2</ele>
        <time>2024-03-18T14:22:06Z</time>
      </trkpt>
      <trkpt lat="43.606" lon="5.8869">
        <ele>463.9</ele>
        <time>2024-03-18T14:22:16Z</time>
      </trkpt>
      <trkpt lat="43.60598" lon="5.88703">
        <ele>463.4</ele>
        <time>2024-03-18T14:22:27Z</time>
      </trkpt>
      <trkpt lat="43.60598" lon="5.88716">
        <ele>462.9</ele>
        <time>2024-03-18T14:22:37Z</time>
      </trkpt>
      <trkpt lat="43.60599" lon="5.88729">
        <ele>462.7</ele>
        <time>2024-03-18T14:22:49Z</time>
      </trkpt>
      <trkpt lat="43.60603" lon="5.88741">
        <ele>462.4</ele>
        <time>2024-03-18T14:22:58Z</time>
      </trkpt>
      <trkpt lat="43.60604" lon="5.88753">
        <ele>462.8</ele>
        <time>2024-03-18T14:23:08Z</time>
      </trkpt>
      <trkpt lat="43.60608" lon="5.88766">
        <ele>462.4</ele>
        <time>2024-03-18T14:23:19Z</time>
      </trkpt>
      <trkpt lat="43.60607" lon="5.8878">
        <ele>462.3</ele>
        <time>2024-03-18T14:23:29Z</time>
      </trkpt>
      <trkpt lat="43.60607" lon="5.88793">
        <ele>461.8</ele>
        <time>2024-03-18T14:23:40Z</time>
      </trkpt>
      <trkpt lat="43.60605" lon="5.88805">
        <ele>461.4</ele>
        <time>2024-03-18T14:23:49Z</time>
      </trkpt>
      <trkpt lat="43.60602" lon="5.88817">
        <ele>461</ele>
        <time>2024-03-18T14:23:58Z</time>
      </trkpt>
      <trkpt lat="43.60597" lon="5.88828">
        <ele>460.6</ele>
        <time>2024-03-18T14:24:08Z</time>
      </trkpt>
      <trkpt lat="43.60598" lon="5.88841">
        <ele>460.8</ele>
        <time>2024-03-18T14:24:20Z</time>
      </trkpt>
      <trkpt lat="43.60599" lon="5.88855">
        <ele>461.1</ele>
        <time>2024-03-18T14:24:31Z</time>
      </trkpt>
      <trkpt lat="43.60596" lon="5.88867">
        <ele>460.9</ele>
        <time>2024-03-18T14:24:42Z</time>
      </trkpt>
      <trkpt lat="43.60595" lon="5.88881">
        <ele>460.6</ele>
        <time>2024-03-18T14:24:55Z</time>
      </trkpt>
      <trkpt lat="43.60596" lon="5.88894">
        <ele>461.1</ele>
        <time>2024-03-18T14:25:07Z</time>
      </trkpt>
      <trkpt lat="43.60597" lon="5.88907">
        <ele>461.1</ele>
        <time>2024-03-18T14:25:22Z</time>
      </trkpt>
      <trkpt lat="43.60592" lon="5.88918">
        <ele>460.1</ele>
        <time>2024-03-18T14:25:37Z</time>
      </trkpt>
      <trkpt lat="43.60584" lon="5.88924">
        <ele>460.7</ele>
        <time>2024-03-18T14:25:52Z</time>
      </trkpt>
      <trkpt lat="43.60575" lon="5.88929">
        <ele>460.8</ele>
        <time>2024-03-18T14:26:03Z</time>
      </trkpt>
      <trkpt lat="43.60568" lon="5.88938">
        <ele>459.4</ele>
        <time>2024-03-18T14:26:15Z</time>
      </trkpt>
      <trkpt lat="43.60563" lon="5.8895">
        <ele>459.5</ele>
        <time>2024-03-18T14:26:28Z</time>
      </trkpt>
      <trkpt lat="43.60558" lon="5.88962">
        <ele>458.5</ele>
        <time>2024-03-18T14:26:36Z</time>
      </trkpt>
      <trkpt lat="43.60553" lon="5.88974">
        <ele>457.7</ele>
        <time>2024-03-18T14:26:45Z</time>
      </trkpt>
      <trkpt lat="43.60544" lon="5.88977">
        <ele>457.1</ele>
        <time>2024-03-18T14:26:55Z</time>
      </trkpt>
      <trkpt lat="43.60538" lon="5.88967">
        <ele>455.7</ele>
        <time>2024-03-18T14:27:05Z</time>
      </trkpt>
      <trkpt lat="43.60534" lon="5.88956">
        <ele>455.2</ele>
        <time>2024-03-18T14:27:14Z</time>
      </trkpt>
      <trkpt lat="43.60532" lon="5.88943">
        <ele>454.1</ele>
        <time>2024-03-18T14:27:23Z</time>
      </trkpt>
      <trkpt lat="43.60529" lon="5.8893">
        <ele>453.5</ele>
        <time>2024-03-18T14:27:42Z</time>
      </trkpt>
      <trkpt lat="43.60526" lon="5.88918">
        <ele>452.8</ele>
        <time>2024-03-18T14:27:51Z</time>
      </trkpt>
      <trkpt lat="43.60524" lon="5.88906">
        <ele>452.2</ele>
        <time>2024-03-18T14:27:59Z</time>
      </trkpt>
      <trkpt lat="43.60522" lon="5.88892">
        <ele>450.8</ele>
        <time>2024-03-18T14:28:08Z</time>
      </trkpt>
      <trkpt lat="43.6052" lon="5.8888">
        <ele>449.2</ele>
        <time>2024-03-18T14:28:27Z</time>
      </trkpt>
      <trkpt lat="43.6052" lon="5.88867">
        <ele>448.2</ele>
        <time>2024-03-18T14:28:41Z</time>
      </trkpt>
      <trkpt lat="43.60518" lon="5.88854">
        <ele>447.1</ele>
        <time>2024-03-18T14:28:55Z</time>
      </trkpt>
      <trkpt lat="43.60516" lon="5.88842">
        <ele>446.5</ele>
        <time>2024-03-18T14:29:03Z</time>
      </trkpt>
      <trkpt lat="43.60514" lon="5.88829">
        <ele>445.6</ele>
        <time>2024-03-18T14:29:11Z</time>
      </trkpt>
      <trkpt lat="43.60512" lon="5.88816">
        <ele>444.7</ele>
        <time>2024-03-18T14:29:20Z</time>
      </trkpt>
      <trkpt lat="43.6051" lon="5.88803">
        <ele>443.2</ele>
        <time>2024-03-18T14:29:32Z</time>
      </trkpt>
      <trkpt lat="43.60508" lon="5.8879">
        <ele>442.5</ele>
        <time>2024-03-18T14:29:40Z</time>
      </trkpt>
      <trkpt lat="43.60507" lon="5.88777">
        <ele>441.6</ele>
        <time>2024-03-18T14:29:49Z</time>
      </trkpt>
      <trkpt lat="43.60505" lon="5.88764">
        <ele>440.6</ele>
        <time>2024-03-18T14:29:58Z</time>
      </trkpt>
      <trkpt lat="43.60504" lon="5.88751">
        <ele>440.4</ele>
        <time>2024-03-18T14:30:16Z</time>
      </trkpt>
      <trkpt lat="43.60503" lon="5.88738">
        <ele>439.6</ele>
        <time>2024-03-18T14:30:26Z</time>
      </trkpt>
      <trkpt lat="43.60501" lon="5.88725">
        <ele>439.2</ele>
        <time>2024-03-18T14:30:35Z</time>
      </trkpt>
      <trkpt lat="43.60499" lon="5.88712">
        <ele>439.1</ele>
        <time>2024-03-18T14:30:45Z</time>
      </trkpt>
      <trkpt lat="43.60497" lon="5.88699">
        <ele>438.3</ele>
        <time>2024-03-18T14:31:03Z</time>
      </trkpt>
      <trkpt lat="43.60495" lon="5.88686">
        <ele>437.9</ele>
        <time>2024-03-18T14:31:12Z</time>
      </trkpt>
      <trkpt lat="43.60493" lon="5.88673">
        <ele>437.6</ele>
        <time>2024-03-18T14:31:21Z</time>
      </trkpt>
      <trkpt lat="43.60491" lon="5.8866">
        <ele>437.2</ele>
        <time>2024-03-18T14:31:30Z</time>
      </trkpt>
      <trkpt lat="43.60488" lon="5.88647">
        <ele>436.4</ele>
        <time>2024-03-18T14:31:39Z</time>
      </trkpt>
      <trkpt lat="43.60485" lon="5.88634">
        <ele>435.9</ele>
        <time>2024-03-18T14:31:51Z</time>
      </trkpt>
      <trkpt lat="43.60485" lon="5.88621">
        <ele>435.2</ele>
        <time>2024-03-18T14:32:02Z</time>
      </trkpt>
      <trkpt lat="43.60485" lon="5.88608">
        <ele>435.1</ele>
        <time>2024-03-18T14:32:12Z</time>
      </trkpt>
      <trkpt lat="43.60482" lon="5.88595">
        <ele>434.3</ele>
        <time>2024-03-18T14:32:22Z</time>
      </trkpt>
      <trkpt lat="43.60482" lon="5.88582">
        <ele>433.9</ele>
        <time>2024-03-18T14:32:31Z</time>
      </trkpt>
      <trkpt lat="43.60478" lon="5.8857">
        <ele>433.1</ele>
        <time>2024-03-18T14:32:49Z</time>
      </trkpt>
      <trkpt lat="43.60479" lon="5.88557">
        <ele>432.8</ele>
        <time>2024-03-18T14:32:58Z</time>
      </trkpt>
      <trkpt lat="43.60479" lon="5.88544">
        <ele>431.7</ele>
        <time>2024-03-18T14:33:11Z</time>
      </trkpt>
      <trkpt lat="43.60476" lon="5.88532">
        <ele>431.6</ele>
        <time>2024-03-18T14:33:20Z</time>
      </trkpt>
      <trkpt lat="43.60475" lon="5.88519">
        <ele>431.3</ele>
        <time>2024-03-18T14:33:28Z</time>
      </trkpt>
      <trkpt lat="43.60473" lon="5.88505">
        <ele>431</ele>
        <time>2024-03-18T14:33:37Z</time>
      </trkpt>
      <trkpt lat="43.60473" lon="5.88493">
        <ele>430.3</ele>
        <time>2024-03-18T14:33:45Z</time>
      </trkpt>
      <trkpt lat="43.60473" lon="5.8848">
        <ele>429.7</ele>
        <time>2024-03-18T14:33:53Z</time>
      </trkpt>
      <trkpt lat="43.60472" lon="5.88466">
        <ele>428.8</ele>
        <time>2024-03-18T14:34:01Z</time>
      </trkpt>
      <trkpt lat="43.6047" lon="5.88453">
        <ele>428.5</ele>
        <time>2024-03-18T14:34:09Z</time>
      </trkpt>
      <trkpt lat="43.60467" lon="5.8844">
        <ele>427.8</ele>
        <time>2024-03-18T14:34:18Z</time>
      </trkpt>
      <trkpt lat="43.60458" lon="5.88436">
        <ele>427.4</ele>
        <time>2024-03-18T14:34:27Z</time>
      </trkpt>
      <trkpt lat="43.60449" lon="5.88438">
        <ele>426.3</ele>
        <time>2024-03-18T14:34:37Z</time>
      </trkpt>
      <trkpt lat="43.60442" lon="5.88447">
        <ele>427.2</ele>
        <time>2024-03-18T14:34:46Z</time>
      </trkpt>
      <trkpt lat="43.60438" lon="5.88459">
        <ele>425.7</ele>
        <time>2024-03-18T14:34:55Z</time>
      </trkpt>
      <trkpt lat="43.60435" lon="5.88471">
        <ele>425.1</ele>
        <time>2024-03-18T14:35:07Z</time>
      </trkpt>
      <trkpt lat="43.60432" lon="5.88483">
        <ele>425.1</ele>
        <time>2024-03-18T14:35:16Z</time>
      </trkpt>
      <trkpt lat="43.60429" lon="5.88496">
        <ele>425.1</ele>
        <time>2024-03-18T14:35:25Z</time>
      </trkpt>
      <trkpt lat="43.60427" lon="5.88509">
        <ele>424.4</ele>
        <time>2024-03-18T14:35:34Z</time>
      </trkpt>
      <trkpt lat="43.60424" lon="5.88521">
        <ele>424.1</ele>
        <time>2024-03-18T14:35:43Z</time>
      </trkpt>
      <trkpt lat="43.60421" lon="5.88533">
        <ele>423.8</ele>
        <time>2024-03-18T14:35:56Z</time>
      </trkpt>
      <trkpt lat="43.60418" lon="5.88546">
        <ele>423.3</ele>
        <time>2024-03-18T14:36:04Z</time>
      </trkpt>
      <trkpt lat="43.60416" lon="5.88559">
        <ele>423.6</ele>
        <time>2024-03-18T14:36:13Z</time>
      </trkpt>
      <trkpt lat="43.60413" lon="5.88572">
        <ele>422.6</ele>
        <time>2024-03-18T14:36:35Z</time>
      </trkpt>
      <trkpt lat="43.60409" lon="5.88584">
        <ele>422.3</ele>
        <time>2024-03-18T14:36:47Z</time>
      </trkpt>
      <trkpt lat="43.60407" lon="5.88597">
        <ele>421.6</ele>
        <time>2024-03-18T14:36:57Z</time>
      </trkpt>
      <trkpt lat="43.60404" lon="5.88611">
        <ele>420.2</ele>
        <time>2024-03-18T14:37:07Z</time>
      </trkpt>
      <trkpt lat="43.60403" lon="5.88624">
        <ele>419.5</ele>
        <time>2024-03-18T14:37:16Z</time>
      </trkpt>
      <trkpt lat="43.60397" lon="5.88634">
        <ele>419.3</ele>
        <time>2024-03-18T14:37:23Z</time>
      </trkpt>
      <trkpt lat="43.60394" lon="5.88647">
        <ele>418.7</ele>
        <time>2024-03-18T14:37:31Z</time>
      </trkpt>
      <trkpt lat="43.60391" lon="5.88661">
        <ele>417.9</ele>
        <time>2024-03-18T14:37:39Z</time>
      </trkpt>
      <trkpt lat="43.60388" lon="5.88674">
        <ele>417.3</ele>
        <time>2024-03-18T14:37:47Z</time>
      </trkpt>
      <trkpt lat="43.60385" lon="5.88686">
        <ele>417</ele>
        <time>2024-03-18T14:37:55Z</time>
      </trkpt>
      <trkpt lat="43.60381" lon="5.88699">
        <ele>416.5</ele>
        <time>2024-03-18T14:38:04Z</time>
      </trkpt>
      <trkpt lat="43.60376" lon="5.88711">
        <ele>415.3</ele>
        <time>2024-03-18T14:38:12Z</time>
      </trkpt>
      <trkpt lat="43.60371" lon="5.88722">
        <ele>414.4</ele>
        <time>2024-03-18T14:38:20Z</time>
      </trkpt>
      <trkpt lat="43.60363" lon="5.8873">
        <ele>414.1</ele>
        <time>2024-03-18T14:38:29Z</time>
      </trkpt>
      <trkpt lat="43.60353" lon="5.88734">
        <ele>413.1</ele>
        <time>2024-03-18T14:38:37Z</time>
      </trkpt>
      <trkpt lat="43.60344" lon="5.88733">
        <ele>412.7</ele>
        <time>2024-03-18T14:38:45Z</time>
      </trkpt>
      <trkpt lat="43.60335" lon="5.88731">
        <ele>412.4</ele>
        <time>2024-03-18T14:38:56Z</time>
      </trkpt>
      <trkpt lat="43.60326" lon="5.88728">
        <ele>412.1</ele>
        <time>2024-03-18T14:39:03Z</time>
      </trkpt>
      <trkpt lat="43.60316" lon="5.88724">
        <ele>411.6</ele>
        <time>2024-03-18T14:39:12Z</time>
      </trkpt>
      <trkpt lat="43.60306" lon="5.88722">
        <ele>411.4</ele>
        <time>2024-03-18T14:39:20Z</time>
      </trkpt>
      <trkpt lat="43.60297" lon="5.88722">
        <ele>409.9</ele>
        <time>2024-03-18T14:39:29Z</time>
      </trkpt>
      <trkpt lat="43.60287" lon="5.8872">
        <ele>409.7</ele>
        <time>2024-03-18T14:39:37Z</time>
      </trkpt>
      <trkpt lat="43.60277" lon="5.8872">
        <ele>410.1</ele>
        <time>2024-03-18T14:39:48Z</time>
      </trkpt>
      <trkpt lat="43.60268" lon="5.88718">
        <ele>409.8</ele>
        <time>2024-03-18T14:39:55Z</time>
      </trkpt>
      <trkpt lat="43.60258" lon="5.88716">
        <ele>409.1</ele>
        <time>2024-03-18T14:40:02Z</time>
      </trkpt>
      <trkpt lat="43.60249" lon="5.88714">
        <ele>408.3</ele>
        <time>2024-03-18T14:40:09Z</time>
      </trkpt>
      <trkpt lat="43.6024" lon="5.88712">
        <ele>407.9</ele>
        <time>2024-03-18T14:40:16Z</time>
      </trkpt>
      <trkpt lat="43.6023" lon="5.8871">
        <ele>407.7</ele>
        <time>2024-03-18T14:40:23Z</time>
      </trkpt>
      <trkpt lat="43.60221" lon="5.88708">
        <ele>407.7</ele>
        <time>2024-03-18T14:40:31Z</time>
      </trkpt>
      <trkpt lat="43.60212" lon="5.88713">
        <ele>408</ele>
        <time>2024-03-18T14:40:40Z</time>
      </trkpt>
      <trkpt lat="43.60206" lon="5.88723">
        <ele>407.8</ele>
        <time>2024-03-18T14:40:50Z</time>
      </trkpt>
      <trkpt lat="43.60203" lon="5.88735">
        <ele>407.8</ele>
        <time>2024-03-18T14:40:59Z</time>
      </trkpt>
      <trkpt lat="43.60199" lon="5.88737">
        <ele>407.6</ele>
        <time>2024-03-18T14:50:03Z</time>
      </trkpt>
    </trkseg>
  </trk>
</gpx>